<?xml version="1.0" encoding="UTF-8" standalone="no" ?>
<gpx xmlns="http://www.topografix.com/GPX/1/1" xmlns:xsi="http://www.w3.org/2001/XMLSchema-instance" xsi:schemaLocation="http://www.topografix.com/GPX/1/1 http://www.topografix.com/GPX/1/1/gpx.xsd" version="1.1" creator="VisuGPX - https://www.visugpx.com">
  <metadata>
    <name>CARREFOUR DE LUYNES 8-5KMS</name>
  </metadata>
  <trk>
    <name><![CDATA[CARREFOUR DE LUYNES 8-5KMS]]></name>
    <trkseg>
      <trkpt lat="48.59169" lon="1.96612">
        <ele>23.69</ele>
        <time>2017-04-02T11:52:32Z</time>
      </trkpt>
      <trkpt lat="48.59167" lon="1.96608">
        <ele>27.53</ele>
        <time>2017-04-02T11:52:40Z</time>
      </trkpt>
      <trkpt lat="48.59167" lon="1.96609">
        <ele>33.78</ele>
        <time>2017-04-02T11:52:42Z</time>
      </trkpt>
      <trkpt lat="48.59167" lon="1.96611">
        <ele>39.07</ele>
        <time>2017-04-02T11:52:44Z</time>
      </trkpt>
      <trkpt lat="48.59168" lon="1.96612">
        <ele>44.36</ele>
        <time>2017-04-02T11:52:46Z</time>
      </trkpt>
      <trkpt lat="48.59169" lon="1.96613">
        <ele>49.16</ele>
        <time>2017-04-02T11:52:48Z</time>
      </trkpt>
      <trkpt lat="48.5917" lon="1.96614">
        <ele>53.97</ele>
        <time>2017-04-02T11:52:50Z</time>
      </trkpt>
      <trkpt lat="48.5917" lon="1.96614">
        <ele>57.82</ele>
        <time>2017-04-02T11:52:52Z</time>
      </trkpt>
      <trkpt lat="48.5917" lon="1.96614">
        <ele>61.66</ele>
        <time>2017-04-02T11:52:54Z</time>
      </trkpt>
      <trkpt lat="48.5917" lon="1.96614">
        <ele>65.03</ele>
        <time>2017-04-02T11:52:56Z</time>
      </trkpt>
      <trkpt lat="48.5917" lon="1.96613">
        <ele>69.35</ele>
        <time>2017-04-02T11:52:59Z</time>
      </trkpt>
      <trkpt lat="48.5917" lon="1.96613">
        <ele>73.2</ele>
        <time>2017-04-02T11:53:02Z</time>
      </trkpt>
      <trkpt lat="48.59171" lon="1.96614">
        <ele>77.52</ele>
        <time>2017-04-02T11:53:05Z</time>
      </trkpt>
      <trkpt lat="48.59171" lon="1.96614">
        <ele>80.89</ele>
        <time>2017-04-02T11:53:08Z</time>
      </trkpt>
      <trkpt lat="48.59171" lon="1.96614">
        <ele>84.73</ele>
        <time>2017-04-02T11:53:11Z</time>
      </trkpt>
      <trkpt lat="48.59172" lon="1.96613">
        <ele>88.58</ele>
        <time>2017-04-02T11:53:15Z</time>
      </trkpt>
      <trkpt lat="48.59172" lon="1.96612">
        <ele>91.94</ele>
        <time>2017-04-02T11:53:19Z</time>
      </trkpt>
      <trkpt lat="48.59172" lon="1.9661">
        <ele>95.31</ele>
        <time>2017-04-02T11:53:24Z</time>
      </trkpt>
      <trkpt lat="48.59171" lon="1.96609">
        <ele>99.15</ele>
        <time>2017-04-02T11:53:30Z</time>
      </trkpt>
      <trkpt lat="48.59171" lon="1.96609">
        <ele>102.52</ele>
        <time>2017-04-02T11:53:36Z</time>
      </trkpt>
      <trkpt lat="48.5917" lon="1.96609">
        <ele>103.96</ele>
        <time>2017-04-02T11:53:39Z</time>
      </trkpt>
      <trkpt lat="48.59162" lon="1.96603">
        <ele>106.84</ele>
        <time>2017-04-02T11:53:49Z</time>
      </trkpt>
      <trkpt lat="48.5916" lon="1.96596">
        <ele>108.29</ele>
        <time>2017-04-02T11:53:55Z</time>
      </trkpt>
      <trkpt lat="48.59151" lon="1.96594">
        <ele>109.73</ele>
        <time>2017-04-02T11:54:08Z</time>
      </trkpt>
      <trkpt lat="48.59151" lon="1.96613">
        <ele>111.17</ele>
        <time>2017-04-02T11:54:22Z</time>
      </trkpt>
      <trkpt lat="48.59154" lon="1.96619">
        <ele>111.65</ele>
        <time>2017-04-02T11:54:38Z</time>
      </trkpt>
      <trkpt lat="48.59156" lon="1.96623">
        <ele>111.65</ele>
        <time>2017-04-02T11:54:57Z</time>
      </trkpt>
      <trkpt lat="48.59155" lon="1.96635">
        <ele>111.17</ele>
        <time>2017-04-02T11:55:04Z</time>
      </trkpt>
      <trkpt lat="48.59157" lon="1.96657">
        <ele>111.65</ele>
        <time>2017-04-02T11:55:18Z</time>
      </trkpt>
      <trkpt lat="48.59157" lon="1.96666">
        <ele>111.65</ele>
        <time>2017-04-02T11:55:23Z</time>
      </trkpt>
      <trkpt lat="48.59156" lon="1.9667">
        <ele>111.65</ele>
        <time>2017-04-02T11:55:25Z</time>
      </trkpt>
      <trkpt lat="48.59153" lon="1.9668">
        <ele>111.65</ele>
        <time>2017-04-02T11:55:29Z</time>
      </trkpt>
      <trkpt lat="48.59155" lon="1.96698">
        <ele>111.65</ele>
        <time>2017-04-02T11:55:37Z</time>
      </trkpt>
      <trkpt lat="48.59154" lon="1.96708">
        <ele>111.65</ele>
        <time>2017-04-02T11:55:43Z</time>
      </trkpt>
      <trkpt lat="48.59153" lon="1.96718">
        <ele>111.17</ele>
        <time>2017-04-02T11:55:48Z</time>
      </trkpt>
      <trkpt lat="48.59151" lon="1.96732">
        <ele>111.17</ele>
        <time>2017-04-02T11:55:57Z</time>
      </trkpt>
      <trkpt lat="48.5915" lon="1.96742">
        <ele>111.17</ele>
        <time>2017-04-02T11:56:02Z</time>
      </trkpt>
      <trkpt lat="48.59149" lon="1.9675">
        <ele>111.17</ele>
        <time>2017-04-02T11:56:06Z</time>
      </trkpt>
      <trkpt lat="48.59144" lon="1.96762">
        <ele>110.69</ele>
        <time>2017-04-02T11:56:14Z</time>
      </trkpt>
      <trkpt lat="48.5914" lon="1.96771">
        <ele>110.69</ele>
        <time>2017-04-02T11:56:19Z</time>
      </trkpt>
      <trkpt lat="48.59138" lon="1.96777">
        <ele>110.21</ele>
        <time>2017-04-02T11:56:22Z</time>
      </trkpt>
      <trkpt lat="48.5913" lon="1.96791">
        <ele>110.21</ele>
        <time>2017-04-02T11:56:29Z</time>
      </trkpt>
      <trkpt lat="48.59127" lon="1.96805">
        <ele>109.73</ele>
        <time>2017-04-02T11:56:34Z</time>
      </trkpt>
      <trkpt lat="48.59124" lon="1.96809">
        <ele>109.73</ele>
        <time>2017-04-02T11:56:36Z</time>
      </trkpt>
      <trkpt lat="48.59117" lon="1.96844">
        <ele>109.73</ele>
        <time>2017-04-02T11:56:52Z</time>
      </trkpt>
      <trkpt lat="48.59115" lon="1.96847">
        <ele>109.73</ele>
        <time>2017-04-02T11:56:55Z</time>
      </trkpt>
      <trkpt lat="48.59111" lon="1.96863">
        <ele>109.25</ele>
        <time>2017-04-02T11:57:07Z</time>
      </trkpt>
      <trkpt lat="48.5911" lon="1.96871">
        <ele>109.73</ele>
        <time>2017-04-02T11:57:11Z</time>
      </trkpt>
      <trkpt lat="48.59106" lon="1.96895">
        <ele>109.73</ele>
        <time>2017-04-02T11:57:22Z</time>
      </trkpt>
      <trkpt lat="48.59104" lon="1.96897">
        <ele>109.25</ele>
        <time>2017-04-02T11:57:23Z</time>
      </trkpt>
      <trkpt lat="48.59099" lon="1.96912">
        <ele>109.25</ele>
        <time>2017-04-02T11:57:32Z</time>
      </trkpt>
      <trkpt lat="48.59094" lon="1.96926">
        <ele>108.77</ele>
        <time>2017-04-02T11:57:41Z</time>
      </trkpt>
      <trkpt lat="48.59086" lon="1.96956">
        <ele>109.73</ele>
        <time>2017-04-02T11:57:55Z</time>
      </trkpt>
      <trkpt lat="48.59081" lon="1.96972">
        <ele>109.73</ele>
        <time>2017-04-02T11:58:02Z</time>
      </trkpt>
      <trkpt lat="48.59076" lon="1.96987">
        <ele>109.73</ele>
        <time>2017-04-02T11:58:10Z</time>
      </trkpt>
      <trkpt lat="48.59068" lon="1.97014">
        <ele>109.73</ele>
        <time>2017-04-02T11:58:21Z</time>
      </trkpt>
      <trkpt lat="48.59064" lon="1.97031">
        <ele>109.73</ele>
        <time>2017-04-02T11:58:29Z</time>
      </trkpt>
      <trkpt lat="48.5906" lon="1.97047">
        <ele>109.73</ele>
        <time>2017-04-02T11:58:37Z</time>
      </trkpt>
      <trkpt lat="48.5906" lon="1.97054">
        <ele>109.25</ele>
        <time>2017-04-02T11:58:42Z</time>
      </trkpt>
      <trkpt lat="48.59054" lon="1.97062">
        <ele>108.77</ele>
        <time>2017-04-02T11:58:50Z</time>
      </trkpt>
      <trkpt lat="48.59053" lon="1.97067">
        <ele>108.77</ele>
        <time>2017-04-02T11:58:53Z</time>
      </trkpt>
      <trkpt lat="48.59048" lon="1.97078">
        <ele>108.77</ele>
        <time>2017-04-02T11:59:04Z</time>
      </trkpt>
      <trkpt lat="48.59047" lon="1.97081">
        <ele>108.77</ele>
        <time>2017-04-02T11:59:06Z</time>
      </trkpt>
      <trkpt lat="48.59044" lon="1.97093">
        <ele>108.29</ele>
        <time>2017-04-02T11:59:12Z</time>
      </trkpt>
      <trkpt lat="48.59037" lon="1.97107">
        <ele>107.81</ele>
        <time>2017-04-02T11:59:19Z</time>
      </trkpt>
      <trkpt lat="48.59035" lon="1.97119">
        <ele>107.81</ele>
        <time>2017-04-02T11:59:31Z</time>
      </trkpt>
      <trkpt lat="48.59035" lon="1.9712">
        <ele>107.81</ele>
        <time>2017-04-02T11:59:37Z</time>
      </trkpt>
      <trkpt lat="48.59034" lon="1.97135">
        <ele>107.32</ele>
        <time>2017-04-02T11:59:49Z</time>
      </trkpt>
      <trkpt lat="48.5903" lon="1.97138">
        <ele>107.32</ele>
        <time>2017-04-02T12:00:02Z</time>
      </trkpt>
      <trkpt lat="48.59027" lon="1.97161">
        <ele>107.32</ele>
        <time>2017-04-02T12:00:15Z</time>
      </trkpt>
      <trkpt lat="48.59026" lon="1.97174">
        <ele>106.84</ele>
        <time>2017-04-02T12:00:21Z</time>
      </trkpt>
      <trkpt lat="48.59023" lon="1.97202">
        <ele>106.84</ele>
        <time>2017-04-02T12:00:33Z</time>
      </trkpt>
      <trkpt lat="48.59021" lon="1.97226">
        <ele>106.84</ele>
        <time>2017-04-02T12:00:42Z</time>
      </trkpt>
      <trkpt lat="48.59018" lon="1.97253">
        <ele>106.84</ele>
        <time>2017-04-02T12:00:55Z</time>
      </trkpt>
      <trkpt lat="48.59023" lon="1.9726">
        <ele>106.84</ele>
        <time>2017-04-02T12:01:07Z</time>
      </trkpt>
      <trkpt lat="48.59039" lon="1.97269">
        <ele>107.32</ele>
        <time>2017-04-02T12:01:20Z</time>
      </trkpt>
      <trkpt lat="48.59054" lon="1.97283">
        <ele>107.81</ele>
        <time>2017-04-02T12:01:35Z</time>
      </trkpt>
      <trkpt lat="48.5906" lon="1.97289">
        <ele>107.81</ele>
        <time>2017-04-02T12:01:41Z</time>
      </trkpt>
      <trkpt lat="48.59086" lon="1.97311">
        <ele>108.29</ele>
        <time>2017-04-02T12:01:57Z</time>
      </trkpt>
      <trkpt lat="48.59097" lon="1.97321">
        <ele>110.21</ele>
        <time>2017-04-02T12:02:04Z</time>
      </trkpt>
      <trkpt lat="48.59116" lon="1.97337">
        <ele>109.73</ele>
        <time>2017-04-02T12:02:16Z</time>
      </trkpt>
      <trkpt lat="48.59122" lon="1.97342">
        <ele>109.73</ele>
        <time>2017-04-02T12:02:20Z</time>
      </trkpt>
      <trkpt lat="48.59126" lon="1.97347">
        <ele>109.73</ele>
        <time>2017-04-02T12:02:23Z</time>
      </trkpt>
      <trkpt lat="48.59152" lon="1.97366">
        <ele>110.69</ele>
        <time>2017-04-02T12:02:38Z</time>
      </trkpt>
      <trkpt lat="48.59154" lon="1.97367">
        <ele>110.21</ele>
        <time>2017-04-02T12:02:41Z</time>
      </trkpt>
      <trkpt lat="48.59158" lon="1.97371">
        <ele>110.69</ele>
        <time>2017-04-02T12:02:46Z</time>
      </trkpt>
      <trkpt lat="48.59163" lon="1.97375">
        <ele>110.69</ele>
        <time>2017-04-02T12:02:50Z</time>
      </trkpt>
      <trkpt lat="48.59172" lon="1.97383">
        <ele>111.65</ele>
        <time>2017-04-02T12:02:57Z</time>
      </trkpt>
      <trkpt lat="48.59176" lon="1.97386">
        <ele>111.65</ele>
        <time>2017-04-02T12:03:00Z</time>
      </trkpt>
      <trkpt lat="48.5919" lon="1.97402">
        <ele>112.61</ele>
        <time>2017-04-02T12:03:12Z</time>
      </trkpt>
      <trkpt lat="48.59201" lon="1.97409">
        <ele>112.61</ele>
        <time>2017-04-02T12:03:18Z</time>
      </trkpt>
      <trkpt lat="48.59222" lon="1.97421">
        <ele>113.57</ele>
        <time>2017-04-02T12:03:31Z</time>
      </trkpt>
      <trkpt lat="48.59237" lon="1.97426">
        <ele>115.01</ele>
        <time>2017-04-02T12:03:42Z</time>
      </trkpt>
      <trkpt lat="48.5926" lon="1.9742">
        <ele>115.98</ele>
        <time>2017-04-02T12:03:58Z</time>
      </trkpt>
      <trkpt lat="48.59263" lon="1.9742">
        <ele>115.98</ele>
        <time>2017-04-02T12:04:00Z</time>
      </trkpt>
      <trkpt lat="48.59266" lon="1.97421">
        <ele>115.98</ele>
        <time>2017-04-02T12:04:02Z</time>
      </trkpt>
      <trkpt lat="48.59275" lon="1.97418">
        <ele>116.94</ele>
        <time>2017-04-02T12:04:09Z</time>
      </trkpt>
      <trkpt lat="48.59291" lon="1.97417">
        <ele>118.38</ele>
        <time>2017-04-02T12:04:20Z</time>
      </trkpt>
      <trkpt lat="48.59309" lon="1.9742">
        <ele>120.3</ele>
        <time>2017-04-02T12:04:34Z</time>
      </trkpt>
      <trkpt lat="48.59327" lon="1.97418">
        <ele>121.74</ele>
        <time>2017-04-02T12:04:49Z</time>
      </trkpt>
      <trkpt lat="48.59347" lon="1.97419">
        <ele>122.71</ele>
        <time>2017-04-02T12:05:03Z</time>
      </trkpt>
      <trkpt lat="48.59357" lon="1.97419">
        <ele>123.67</ele>
        <time>2017-04-02T12:05:13Z</time>
      </trkpt>
      <trkpt lat="48.59376" lon="1.97422">
        <ele>125.11</ele>
        <time>2017-04-02T12:05:27Z</time>
      </trkpt>
      <trkpt lat="48.59398" lon="1.9742">
        <ele>125.59</ele>
        <time>2017-04-02T12:05:41Z</time>
      </trkpt>
      <trkpt lat="48.59404" lon="1.9742">
        <ele>125.59</ele>
        <time>2017-04-02T12:05:45Z</time>
      </trkpt>
      <trkpt lat="48.59412" lon="1.97423">
        <ele>126.07</ele>
        <time>2017-04-02T12:05:49Z</time>
      </trkpt>
      <trkpt lat="48.59427" lon="1.9742">
        <ele>128.95</ele>
        <time>2017-04-02T12:06:04Z</time>
      </trkpt>
      <trkpt lat="48.59434" lon="1.97421">
        <ele>128.95</ele>
        <time>2017-04-02T12:06:10Z</time>
      </trkpt>
      <trkpt lat="48.59447" lon="1.97425">
        <ele>129.43</ele>
        <time>2017-04-02T12:06:16Z</time>
      </trkpt>
      <trkpt lat="48.5946" lon="1.9743">
        <ele>129.92</ele>
        <time>2017-04-02T12:06:29Z</time>
      </trkpt>
      <trkpt lat="48.59469" lon="1.97436">
        <ele>129.92</ele>
        <time>2017-04-02T12:06:42Z</time>
      </trkpt>
      <trkpt lat="48.59471" lon="1.97438">
        <ele>129.92</ele>
        <time>2017-04-02T12:06:53Z</time>
      </trkpt>
      <trkpt lat="48.59471" lon="1.9744">
        <ele>130.4</ele>
        <time>2017-04-02T12:06:56Z</time>
      </trkpt>
      <trkpt lat="48.5947" lon="1.9745">
        <ele>130.88</ele>
        <time>2017-04-02T12:07:02Z</time>
      </trkpt>
      <trkpt lat="48.59469" lon="1.97472">
        <ele>131.84</ele>
        <time>2017-04-02T12:07:12Z</time>
      </trkpt>
      <trkpt lat="48.59469" lon="1.97476">
        <ele>131.84</ele>
        <time>2017-04-02T12:07:14Z</time>
      </trkpt>
      <trkpt lat="48.59475" lon="1.97502">
        <ele>132.32</ele>
        <time>2017-04-02T12:07:26Z</time>
      </trkpt>
      <trkpt lat="48.59471" lon="1.97513">
        <ele>132.8</ele>
        <time>2017-04-02T12:07:32Z</time>
      </trkpt>
      <trkpt lat="48.59468" lon="1.97529">
        <ele>134.24</ele>
        <time>2017-04-02T12:07:41Z</time>
      </trkpt>
      <trkpt lat="48.59467" lon="1.97535">
        <ele>134.24</ele>
        <time>2017-04-02T12:07:44Z</time>
      </trkpt>
      <trkpt lat="48.59454" lon="1.97556">
        <ele>135.2</ele>
        <time>2017-04-02T12:07:55Z</time>
      </trkpt>
      <trkpt lat="48.59449" lon="1.97561">
        <ele>135.68</ele>
        <time>2017-04-02T12:07:59Z</time>
      </trkpt>
      <trkpt lat="48.59446" lon="1.97569">
        <ele>135.68</ele>
        <time>2017-04-02T12:08:03Z</time>
      </trkpt>
      <trkpt lat="48.59443" lon="1.97577">
        <ele>136.16</ele>
        <time>2017-04-02T12:08:07Z</time>
      </trkpt>
      <trkpt lat="48.59441" lon="1.9758">
        <ele>136.16</ele>
        <time>2017-04-02T12:08:09Z</time>
      </trkpt>
      <trkpt lat="48.59437" lon="1.97596">
        <ele>137.61</ele>
        <time>2017-04-02T12:08:19Z</time>
      </trkpt>
      <trkpt lat="48.59432" lon="1.97616">
        <ele>139.05</ele>
        <time>2017-04-02T12:08:30Z</time>
      </trkpt>
      <trkpt lat="48.59431" lon="1.97622">
        <ele>139.05</ele>
        <time>2017-04-02T12:08:33Z</time>
      </trkpt>
      <trkpt lat="48.59431" lon="1.97629">
        <ele>139.53</ele>
        <time>2017-04-02T12:08:37Z</time>
      </trkpt>
      <trkpt lat="48.59431" lon="1.9764">
        <ele>140.49</ele>
        <time>2017-04-02T12:08:42Z</time>
      </trkpt>
      <trkpt lat="48.59431" lon="1.97666">
        <ele>141.45</ele>
        <time>2017-04-02T12:08:54Z</time>
      </trkpt>
      <trkpt lat="48.59432" lon="1.9767">
        <ele>142.89</ele>
        <time>2017-04-02T12:08:56Z</time>
      </trkpt>
      <trkpt lat="48.59431" lon="1.97678">
        <ele>142.89</ele>
        <time>2017-04-02T12:09:00Z</time>
      </trkpt>
      <trkpt lat="48.59433" lon="1.97704">
        <ele>145.3</ele>
        <time>2017-04-02T12:09:14Z</time>
      </trkpt>
      <trkpt lat="48.59433" lon="1.97707">
        <ele>145.3</ele>
        <time>2017-04-02T12:09:16Z</time>
      </trkpt>
      <trkpt lat="48.59436" lon="1.97722">
        <ele>147.22</ele>
        <time>2017-04-02T12:09:25Z</time>
      </trkpt>
      <trkpt lat="48.59439" lon="1.97734">
        <ele>147.7</ele>
        <time>2017-04-02T12:09:32Z</time>
      </trkpt>
      <trkpt lat="48.59433" lon="1.97744">
        <ele>149.14</ele>
        <time>2017-04-02T12:09:42Z</time>
      </trkpt>
      <trkpt lat="48.5943" lon="1.97745">
        <ele>149.14</ele>
        <time>2017-04-02T12:09:44Z</time>
      </trkpt>
      <trkpt lat="48.59426" lon="1.97743">
        <ele>149.14</ele>
        <time>2017-04-02T12:09:47Z</time>
      </trkpt>
      <trkpt lat="48.59418" lon="1.97738">
        <ele>149.62</ele>
        <time>2017-04-02T12:09:53Z</time>
      </trkpt>
      <trkpt lat="48.59406" lon="1.97732">
        <ele>149.14</ele>
        <time>2017-04-02T12:10:04Z</time>
      </trkpt>
      <trkpt lat="48.59394" lon="1.97724">
        <ele>149.62</ele>
        <time>2017-04-02T12:10:12Z</time>
      </trkpt>
      <trkpt lat="48.5939" lon="1.97723">
        <ele>149.62</ele>
        <time>2017-04-02T12:10:15Z</time>
      </trkpt>
      <trkpt lat="48.59383" lon="1.97717">
        <ele>149.62</ele>
        <time>2017-04-02T12:10:20Z</time>
      </trkpt>
      <trkpt lat="48.5938" lon="1.97714">
        <ele>149.62</ele>
        <time>2017-04-02T12:10:22Z</time>
      </trkpt>
      <trkpt lat="48.59377" lon="1.97711">
        <ele>149.62</ele>
        <time>2017-04-02T12:10:25Z</time>
      </trkpt>
      <trkpt lat="48.59365" lon="1.97706">
        <ele>149.62</ele>
        <time>2017-04-02T12:10:36Z</time>
      </trkpt>
      <trkpt lat="48.59358" lon="1.97708">
        <ele>149.62</ele>
        <time>2017-04-02T12:10:40Z</time>
      </trkpt>
      <trkpt lat="48.59352" lon="1.97717">
        <ele>149.62</ele>
        <time>2017-04-02T12:10:48Z</time>
      </trkpt>
      <trkpt lat="48.59349" lon="1.97726">
        <ele>149.62</ele>
        <time>2017-04-02T12:10:52Z</time>
      </trkpt>
      <trkpt lat="48.59341" lon="1.97743">
        <ele>149.62</ele>
        <time>2017-04-02T12:11:01Z</time>
      </trkpt>
      <trkpt lat="48.5934" lon="1.97749">
        <ele>149.62</ele>
        <time>2017-04-02T12:11:04Z</time>
      </trkpt>
      <trkpt lat="48.59333" lon="1.97764">
        <ele>149.62</ele>
        <time>2017-04-02T12:11:12Z</time>
      </trkpt>
      <trkpt lat="48.59334" lon="1.97768">
        <ele>149.14</ele>
        <time>2017-04-02T12:11:14Z</time>
      </trkpt>
      <trkpt lat="48.59334" lon="1.97775">
        <ele>149.14</ele>
        <time>2017-04-02T12:11:18Z</time>
      </trkpt>
      <trkpt lat="48.59335" lon="1.9779">
        <ele>148.66</ele>
        <time>2017-04-02T12:11:25Z</time>
      </trkpt>
      <trkpt lat="48.59337" lon="1.97794">
        <ele>148.66</ele>
        <time>2017-04-02T12:11:27Z</time>
      </trkpt>
      <trkpt lat="48.5934" lon="1.97805">
        <ele>148.66</ele>
        <time>2017-04-02T12:11:33Z</time>
      </trkpt>
      <trkpt lat="48.59346" lon="1.97828">
        <ele>148.66</ele>
        <time>2017-04-02T12:11:44Z</time>
      </trkpt>
      <trkpt lat="48.59353" lon="1.97847">
        <ele>148.18</ele>
        <time>2017-04-02T12:11:53Z</time>
      </trkpt>
      <trkpt lat="48.59358" lon="1.97873">
        <ele>148.18</ele>
        <time>2017-04-02T12:12:04Z</time>
      </trkpt>
      <trkpt lat="48.5936" lon="1.97879">
        <ele>148.18</ele>
        <time>2017-04-02T12:12:07Z</time>
      </trkpt>
      <trkpt lat="48.59365" lon="1.97903">
        <ele>148.66</ele>
        <time>2017-04-02T12:12:18Z</time>
      </trkpt>
      <trkpt lat="48.59367" lon="1.97928">
        <ele>148.66</ele>
        <time>2017-04-02T12:12:31Z</time>
      </trkpt>
      <trkpt lat="48.59366" lon="1.97943">
        <ele>148.66</ele>
        <time>2017-04-02T12:12:38Z</time>
      </trkpt>
      <trkpt lat="48.59364" lon="1.97947">
        <ele>148.66</ele>
        <time>2017-04-02T12:12:40Z</time>
      </trkpt>
      <trkpt lat="48.59362" lon="1.97959">
        <ele>148.66</ele>
        <time>2017-04-02T12:12:46Z</time>
      </trkpt>
      <trkpt lat="48.59361" lon="1.97967">
        <ele>148.66</ele>
        <time>2017-04-02T12:12:49Z</time>
      </trkpt>
      <trkpt lat="48.59355" lon="1.97982">
        <ele>148.18</ele>
        <time>2017-04-02T12:12:58Z</time>
      </trkpt>
      <trkpt lat="48.59354" lon="1.97985">
        <ele>148.18</ele>
        <time>2017-04-02T12:13:00Z</time>
      </trkpt>
      <trkpt lat="48.59351" lon="1.97999">
        <ele>148.18</ele>
        <time>2017-04-02T12:13:07Z</time>
      </trkpt>
      <trkpt lat="48.59341" lon="1.98007">
        <ele>147.7</ele>
        <time>2017-04-02T12:13:19Z</time>
      </trkpt>
      <trkpt lat="48.5934" lon="1.97998">
        <ele>147.22</ele>
        <time>2017-04-02T12:13:32Z</time>
      </trkpt>
      <trkpt lat="48.5934" lon="1.97999">
        <ele>147.22</ele>
        <time>2017-04-02T12:14:01Z</time>
      </trkpt>
      <trkpt lat="48.5934" lon="1.98">
        <ele>147.22</ele>
        <time>2017-04-02T12:14:02Z</time>
      </trkpt>
      <trkpt lat="48.59337" lon="1.98002">
        <ele>147.7</ele>
        <time>2017-04-02T12:14:05Z</time>
      </trkpt>
      <trkpt lat="48.59334" lon="1.98003">
        <ele>146.74</ele>
        <time>2017-04-02T12:14:22Z</time>
      </trkpt>
      <trkpt lat="48.59339" lon="1.98006">
        <ele>147.22</ele>
        <time>2017-04-02T12:14:36Z</time>
      </trkpt>
      <trkpt lat="48.59339" lon="1.98007">
        <ele>147.22</ele>
        <time>2017-04-02T12:14:37Z</time>
      </trkpt>
      <trkpt lat="48.59342" lon="1.98011">
        <ele>147.7</ele>
        <time>2017-04-02T12:14:40Z</time>
      </trkpt>
      <trkpt lat="48.59346" lon="1.98017">
        <ele>148.18</ele>
        <time>2017-04-02T12:14:46Z</time>
      </trkpt>
      <trkpt lat="48.59355" lon="1.98027">
        <ele>148.18</ele>
        <time>2017-04-02T12:14:54Z</time>
      </trkpt>
      <trkpt lat="48.59363" lon="1.98044">
        <ele>148.18</ele>
        <time>2017-04-02T12:15:03Z</time>
      </trkpt>
      <trkpt lat="48.59376" lon="1.98059">
        <ele>148.18</ele>
        <time>2017-04-02T12:15:15Z</time>
      </trkpt>
      <trkpt lat="48.59383" lon="1.98068">
        <ele>147.7</ele>
        <time>2017-04-02T12:15:23Z</time>
      </trkpt>
      <trkpt lat="48.59398" lon="1.98081">
        <ele>147.7</ele>
        <time>2017-04-02T12:15:37Z</time>
      </trkpt>
      <trkpt lat="48.59411" lon="1.98085">
        <ele>147.22</ele>
        <time>2017-04-02T12:15:49Z</time>
      </trkpt>
      <trkpt lat="48.5943" lon="1.98076">
        <ele>147.7</ele>
        <time>2017-04-02T12:16:00Z</time>
      </trkpt>
      <trkpt lat="48.59433" lon="1.98074">
        <ele>148.18</ele>
        <time>2017-04-02T12:16:02Z</time>
      </trkpt>
      <trkpt lat="48.59437" lon="1.98072">
        <ele>149.14</ele>
        <time>2017-04-02T12:16:05Z</time>
      </trkpt>
      <trkpt lat="48.59445" lon="1.9807">
        <ele>147.7</ele>
        <time>2017-04-02T12:16:10Z</time>
      </trkpt>
      <trkpt lat="48.59455" lon="1.98054">
        <ele>147.7</ele>
        <time>2017-04-02T12:16:19Z</time>
      </trkpt>
      <trkpt lat="48.5946" lon="1.98048">
        <ele>148.18</ele>
        <time>2017-04-02T12:16:23Z</time>
      </trkpt>
      <trkpt lat="48.59472" lon="1.98021">
        <ele>148.18</ele>
        <time>2017-04-02T12:16:35Z</time>
      </trkpt>
      <trkpt lat="48.59483" lon="1.98009">
        <ele>148.18</ele>
        <time>2017-04-02T12:16:44Z</time>
      </trkpt>
      <trkpt lat="48.59487" lon="1.98002">
        <ele>148.18</ele>
        <time>2017-04-02T12:16:48Z</time>
      </trkpt>
      <trkpt lat="48.59508" lon="1.97989">
        <ele>147.7</ele>
        <time>2017-04-02T12:17:05Z</time>
      </trkpt>
      <trkpt lat="48.59511" lon="1.97991">
        <ele>147.7</ele>
        <time>2017-04-02T12:17:08Z</time>
      </trkpt>
      <trkpt lat="48.59529" lon="1.98012">
        <ele>147.22</ele>
        <time>2017-04-02T12:17:21Z</time>
      </trkpt>
      <trkpt lat="48.59545" lon="1.98026">
        <ele>146.74</ele>
        <time>2017-04-02T12:17:33Z</time>
      </trkpt>
      <trkpt lat="48.59562" lon="1.98037">
        <ele>145.78</ele>
        <time>2017-04-02T12:17:47Z</time>
      </trkpt>
      <trkpt lat="48.5958" lon="1.98042">
        <ele>144.34</ele>
        <time>2017-04-02T12:18:00Z</time>
      </trkpt>
      <trkpt lat="48.59592" lon="1.98054">
        <ele>143.85</ele>
        <time>2017-04-02T12:18:09Z</time>
      </trkpt>
      <trkpt lat="48.59596" lon="1.9806">
        <ele>143.37</ele>
        <time>2017-04-02T12:18:13Z</time>
      </trkpt>
      <trkpt lat="48.59603" lon="1.98067">
        <ele>142.89</ele>
        <time>2017-04-02T12:18:18Z</time>
      </trkpt>
      <trkpt lat="48.59611" lon="1.98076">
        <ele>142.41</ele>
        <time>2017-04-02T12:18:24Z</time>
      </trkpt>
      <trkpt lat="48.59615" lon="1.98081">
        <ele>141.93</ele>
        <time>2017-04-02T12:18:28Z</time>
      </trkpt>
      <trkpt lat="48.59619" lon="1.98086">
        <ele>141.93</ele>
        <time>2017-04-02T12:18:31Z</time>
      </trkpt>
      <trkpt lat="48.59623" lon="1.98093">
        <ele>141.93</ele>
        <time>2017-04-02T12:18:35Z</time>
      </trkpt>
      <trkpt lat="48.59629" lon="1.98099">
        <ele>141.45</ele>
        <time>2017-04-02T12:18:40Z</time>
      </trkpt>
      <trkpt lat="48.59645" lon="1.98122">
        <ele>141.45</ele>
        <time>2017-04-02T12:18:55Z</time>
      </trkpt>
      <trkpt lat="48.59659" lon="1.9814">
        <ele>140.97</ele>
        <time>2017-04-02T12:19:07Z</time>
      </trkpt>
      <trkpt lat="48.59669" lon="1.98152">
        <ele>140.49</ele>
        <time>2017-04-02T12:19:15Z</time>
      </trkpt>
      <trkpt lat="48.59675" lon="1.98159">
        <ele>140.49</ele>
        <time>2017-04-02T12:19:19Z</time>
      </trkpt>
      <trkpt lat="48.59691" lon="1.9818">
        <ele>139.05</ele>
        <time>2017-04-02T12:19:34Z</time>
      </trkpt>
      <trkpt lat="48.59695" lon="1.98183">
        <ele>138.57</ele>
        <time>2017-04-02T12:19:39Z</time>
      </trkpt>
      <trkpt lat="48.59701" lon="1.98189">
        <ele>138.09</ele>
        <time>2017-04-02T12:19:44Z</time>
      </trkpt>
      <trkpt lat="48.59715" lon="1.98201">
        <ele>136.16</ele>
        <time>2017-04-02T12:19:58Z</time>
      </trkpt>
      <trkpt lat="48.59723" lon="1.98202">
        <ele>135.68</ele>
        <time>2017-04-02T12:20:04Z</time>
      </trkpt>
      <trkpt lat="48.59728" lon="1.98203">
        <ele>134.72</ele>
        <time>2017-04-02T12:20:08Z</time>
      </trkpt>
      <trkpt lat="48.59734" lon="1.98208">
        <ele>134.24</ele>
        <time>2017-04-02T12:20:13Z</time>
      </trkpt>
      <trkpt lat="48.5974" lon="1.98212">
        <ele>132.8</ele>
        <time>2017-04-02T12:20:18Z</time>
      </trkpt>
      <trkpt lat="48.5975" lon="1.98216">
        <ele>132.32</ele>
        <time>2017-04-02T12:20:26Z</time>
      </trkpt>
      <trkpt lat="48.59769" lon="1.98223">
        <ele>130.4</ele>
        <time>2017-04-02T12:20:41Z</time>
      </trkpt>
      <trkpt lat="48.59776" lon="1.98231">
        <ele>129.92</ele>
        <time>2017-04-02T12:20:47Z</time>
      </trkpt>
      <trkpt lat="48.59788" lon="1.98246">
        <ele>127.51</ele>
        <time>2017-04-02T12:21:00Z</time>
      </trkpt>
      <trkpt lat="48.59801" lon="1.98252">
        <ele>125.11</ele>
        <time>2017-04-02T12:21:13Z</time>
      </trkpt>
      <trkpt lat="48.59804" lon="1.98253">
        <ele>124.15</ele>
        <time>2017-04-02T12:21:16Z</time>
      </trkpt>
      <trkpt lat="48.59816" lon="1.98255">
        <ele>122.71</ele>
        <time>2017-04-02T12:21:27Z</time>
      </trkpt>
      <trkpt lat="48.59823" lon="1.98257">
        <ele>121.74</ele>
        <time>2017-04-02T12:21:33Z</time>
      </trkpt>
      <trkpt lat="48.59838" lon="1.98266">
        <ele>118.86</ele>
        <time>2017-04-02T12:21:46Z</time>
      </trkpt>
      <trkpt lat="48.5984" lon="1.98266">
        <ele>118.86</ele>
        <time>2017-04-02T12:21:47Z</time>
      </trkpt>
      <trkpt lat="48.59843" lon="1.98267">
        <ele>118.38</ele>
        <time>2017-04-02T12:21:49Z</time>
      </trkpt>
      <trkpt lat="48.59855" lon="1.9827">
        <ele>117.9</ele>
        <time>2017-04-02T12:21:57Z</time>
      </trkpt>
      <trkpt lat="48.59871" lon="1.98279">
        <ele>115.5</ele>
        <time>2017-04-02T12:22:12Z</time>
      </trkpt>
      <trkpt lat="48.59885" lon="1.98294">
        <ele>115.01</ele>
        <time>2017-04-02T12:22:24Z</time>
      </trkpt>
      <trkpt lat="48.59891" lon="1.98308">
        <ele>114.05</ele>
        <time>2017-04-02T12:22:34Z</time>
      </trkpt>
      <trkpt lat="48.59884" lon="1.9832">
        <ele>115.01</ele>
        <time>2017-04-02T12:22:43Z</time>
      </trkpt>
      <trkpt lat="48.59876" lon="1.98339">
        <ele>115.01</ele>
        <time>2017-04-02T12:22:52Z</time>
      </trkpt>
      <trkpt lat="48.59865" lon="1.98361">
        <ele>114.53</ele>
        <time>2017-04-02T12:23:04Z</time>
      </trkpt>
      <trkpt lat="48.59858" lon="1.98371">
        <ele>114.53</ele>
        <time>2017-04-02T12:23:11Z</time>
      </trkpt>
      <trkpt lat="48.59856" lon="1.98376">
        <ele>114.53</ele>
        <time>2017-04-02T12:23:14Z</time>
      </trkpt>
      <trkpt lat="48.59853" lon="1.98385">
        <ele>114.05</ele>
        <time>2017-04-02T12:23:19Z</time>
      </trkpt>
      <trkpt lat="48.5985" lon="1.98393">
        <ele>113.57</ele>
        <time>2017-04-02T12:23:24Z</time>
      </trkpt>
      <trkpt lat="48.59842" lon="1.98406">
        <ele>113.57</ele>
        <time>2017-04-02T12:23:32Z</time>
      </trkpt>
      <trkpt lat="48.59841" lon="1.98426">
        <ele>115.01</ele>
        <time>2017-04-02T12:23:42Z</time>
      </trkpt>
      <trkpt lat="48.59848" lon="1.98454">
        <ele>115.98</ele>
        <time>2017-04-02T12:23:56Z</time>
      </trkpt>
      <trkpt lat="48.59849" lon="1.98457">
        <ele>116.46</ele>
        <time>2017-04-02T12:23:59Z</time>
      </trkpt>
      <trkpt lat="48.59854" lon="1.98469">
        <ele>116.94</ele>
        <time>2017-04-02T12:24:07Z</time>
      </trkpt>
      <trkpt lat="48.59854" lon="1.98475">
        <ele>116.94</ele>
        <time>2017-04-02T12:24:10Z</time>
      </trkpt>
      <trkpt lat="48.59851" lon="1.9848">
        <ele>113.09</ele>
        <time>2017-04-02T12:24:18Z</time>
      </trkpt>
      <trkpt lat="48.59851" lon="1.9848">
        <ele>116.46</ele>
        <time>2017-04-02T12:24:19Z</time>
      </trkpt>
      <trkpt lat="48.59849" lon="1.98477">
        <ele>115.98</ele>
        <time>2017-04-02T12:24:28Z</time>
      </trkpt>
      <trkpt lat="48.59848" lon="1.98477">
        <ele>121.26</ele>
        <time>2017-04-02T12:24:29Z</time>
      </trkpt>
      <trkpt lat="48.59845" lon="1.98494">
        <ele>117.42</ele>
        <time>2017-04-02T12:24:32Z</time>
      </trkpt>
      <trkpt lat="48.59844" lon="1.98495">
        <ele>117.9</ele>
        <time>2017-04-02T12:24:34Z</time>
      </trkpt>
      <trkpt lat="48.5984" lon="1.98501">
        <ele>118.38</ele>
        <time>2017-04-02T12:24:40Z</time>
      </trkpt>
      <trkpt lat="48.59826" lon="1.98517">
        <ele>121.74</ele>
        <time>2017-04-02T12:24:53Z</time>
      </trkpt>
      <trkpt lat="48.59816" lon="1.98518">
        <ele>124.63</ele>
        <time>2017-04-02T12:25:02Z</time>
      </trkpt>
      <trkpt lat="48.59813" lon="1.98517">
        <ele>125.59</ele>
        <time>2017-04-02T12:25:05Z</time>
      </trkpt>
      <trkpt lat="48.59807" lon="1.98518">
        <ele>126.07</ele>
        <time>2017-04-02T12:25:10Z</time>
      </trkpt>
      <trkpt lat="48.59797" lon="1.98519">
        <ele>128.95</ele>
        <time>2017-04-02T12:25:21Z</time>
      </trkpt>
      <trkpt lat="48.59795" lon="1.98519">
        <ele>129.92</ele>
        <time>2017-04-02T12:25:23Z</time>
      </trkpt>
      <trkpt lat="48.5978" lon="1.98525">
        <ele>132.8</ele>
        <time>2017-04-02T12:25:36Z</time>
      </trkpt>
      <trkpt lat="48.59778" lon="1.98528">
        <ele>132.8</ele>
        <time>2017-04-02T12:25:38Z</time>
      </trkpt>
      <trkpt lat="48.59772" lon="1.98531">
        <ele>133.28</ele>
        <time>2017-04-02T12:25:42Z</time>
      </trkpt>
      <trkpt lat="48.59764" lon="1.98541">
        <ele>133.76</ele>
        <time>2017-04-02T12:25:49Z</time>
      </trkpt>
      <trkpt lat="48.59757" lon="1.98545">
        <ele>133.76</ele>
        <time>2017-04-02T12:25:54Z</time>
      </trkpt>
      <trkpt lat="48.59746" lon="1.98549">
        <ele>134.72</ele>
        <time>2017-04-02T12:26:02Z</time>
      </trkpt>
      <trkpt lat="48.59741" lon="1.9855">
        <ele>134.72</ele>
        <time>2017-04-02T12:26:06Z</time>
      </trkpt>
      <trkpt lat="48.59731" lon="1.98554">
        <ele>134.72</ele>
        <time>2017-04-02T12:26:13Z</time>
      </trkpt>
      <trkpt lat="48.59712" lon="1.98569">
        <ele>134.72</ele>
        <time>2017-04-02T12:26:25Z</time>
      </trkpt>
      <trkpt lat="48.59708" lon="1.98571">
        <ele>134.72</ele>
        <time>2017-04-02T12:26:27Z</time>
      </trkpt>
      <trkpt lat="48.59705" lon="1.98572">
        <ele>135.2</ele>
        <time>2017-04-02T12:26:30Z</time>
      </trkpt>
      <trkpt lat="48.59697" lon="1.98579">
        <ele>134.24</ele>
        <time>2017-04-02T12:26:37Z</time>
      </trkpt>
      <trkpt lat="48.59696" lon="1.98586">
        <ele>133.76</ele>
        <time>2017-04-02T12:26:43Z</time>
      </trkpt>
      <trkpt lat="48.59698" lon="1.98602">
        <ele>131.36</ele>
        <time>2017-04-02T12:26:56Z</time>
      </trkpt>
      <trkpt lat="48.59699" lon="1.9861">
        <ele>129.92</ele>
        <time>2017-04-02T12:27:03Z</time>
      </trkpt>
      <trkpt lat="48.597" lon="1.98614">
        <ele>127.51</ele>
        <time>2017-04-02T12:27:06Z</time>
      </trkpt>
      <trkpt lat="48.597" lon="1.98618">
        <ele>127.03</ele>
        <time>2017-04-02T12:27:08Z</time>
      </trkpt>
      <trkpt lat="48.59699" lon="1.98636">
        <ele>124.15</ele>
        <time>2017-04-02T12:27:19Z</time>
      </trkpt>
      <trkpt lat="48.59699" lon="1.9864">
        <ele>122.71</ele>
        <time>2017-04-02T12:27:23Z</time>
      </trkpt>
      <trkpt lat="48.59698" lon="1.98646">
        <ele>121.74</ele>
        <time>2017-04-02T12:27:26Z</time>
      </trkpt>
      <trkpt lat="48.59695" lon="1.98652">
        <ele>120.3</ele>
        <time>2017-04-02T12:27:29Z</time>
      </trkpt>
      <trkpt lat="48.59692" lon="1.98656">
        <ele>119.82</ele>
        <time>2017-04-02T12:27:33Z</time>
      </trkpt>
      <trkpt lat="48.59692" lon="1.98659">
        <ele>119.34</ele>
        <time>2017-04-02T12:27:35Z</time>
      </trkpt>
      <trkpt lat="48.59689" lon="1.98666">
        <ele>118.38</ele>
        <time>2017-04-02T12:27:39Z</time>
      </trkpt>
      <trkpt lat="48.59682" lon="1.98686">
        <ele>116.46</ele>
        <time>2017-04-02T12:27:51Z</time>
      </trkpt>
      <trkpt lat="48.5968" lon="1.98687">
        <ele>115.98</ele>
        <time>2017-04-02T12:27:52Z</time>
      </trkpt>
      <trkpt lat="48.59674" lon="1.98694">
        <ele>115.5</ele>
        <time>2017-04-02T12:27:58Z</time>
      </trkpt>
      <trkpt lat="48.59666" lon="1.98698">
        <ele>115.5</ele>
        <time>2017-04-02T12:28:06Z</time>
      </trkpt>
      <trkpt lat="48.59659" lon="1.98694">
        <ele>115.01</ele>
        <time>2017-04-02T12:28:11Z</time>
      </trkpt>
      <trkpt lat="48.59652" lon="1.98691">
        <ele>115.5</ele>
        <time>2017-04-02T12:28:16Z</time>
      </trkpt>
      <trkpt lat="48.59648" lon="1.98691">
        <ele>115.5</ele>
        <time>2017-04-02T12:28:18Z</time>
      </trkpt>
      <trkpt lat="48.59642" lon="1.98687">
        <ele>115.98</ele>
        <time>2017-04-02T12:28:22Z</time>
      </trkpt>
      <trkpt lat="48.59637" lon="1.98684">
        <ele>115.98</ele>
        <time>2017-04-02T12:28:25Z</time>
      </trkpt>
      <trkpt lat="48.59623" lon="1.987">
        <ele>115.01</ele>
        <time>2017-04-02T12:28:37Z</time>
      </trkpt>
      <trkpt lat="48.59618" lon="1.98706">
        <ele>114.53</ele>
        <time>2017-04-02T12:28:42Z</time>
      </trkpt>
      <trkpt lat="48.59614" lon="1.98711">
        <ele>114.53</ele>
        <time>2017-04-02T12:28:46Z</time>
      </trkpt>
      <trkpt lat="48.59611" lon="1.9872">
        <ele>114.05</ele>
        <time>2017-04-02T12:28:50Z</time>
      </trkpt>
      <trkpt lat="48.59596" lon="1.98737">
        <ele>113.09</ele>
        <time>2017-04-02T12:29:02Z</time>
      </trkpt>
      <trkpt lat="48.59591" lon="1.98744">
        <ele>113.57</ele>
        <time>2017-04-02T12:29:07Z</time>
      </trkpt>
      <trkpt lat="48.59585" lon="1.98752">
        <ele>113.09</ele>
        <time>2017-04-02T12:29:14Z</time>
      </trkpt>
      <trkpt lat="48.59578" lon="1.98762">
        <ele>114.53</ele>
        <time>2017-04-02T12:29:22Z</time>
      </trkpt>
      <trkpt lat="48.59576" lon="1.98764">
        <ele>114.53</ele>
        <time>2017-04-02T12:29:24Z</time>
      </trkpt>
      <trkpt lat="48.59571" lon="1.98766">
        <ele>114.53</ele>
        <time>2017-04-02T12:29:27Z</time>
      </trkpt>
      <trkpt lat="48.59559" lon="1.98772">
        <ele>114.53</ele>
        <time>2017-04-02T12:29:35Z</time>
      </trkpt>
      <trkpt lat="48.59551" lon="1.98791">
        <ele>114.53</ele>
        <time>2017-04-02T12:29:47Z</time>
      </trkpt>
      <trkpt lat="48.59553" lon="1.98793">
        <ele>114.05</ele>
        <time>2017-04-02T12:29:53Z</time>
      </trkpt>
      <trkpt lat="48.59559" lon="1.98794">
        <ele>114.05</ele>
        <time>2017-04-02T12:29:57Z</time>
      </trkpt>
      <trkpt lat="48.59573" lon="1.98797">
        <ele>114.53</ele>
        <time>2017-04-02T12:30:07Z</time>
      </trkpt>
      <trkpt lat="48.59579" lon="1.98796">
        <ele>114.53</ele>
        <time>2017-04-02T12:30:11Z</time>
      </trkpt>
      <trkpt lat="48.59594" lon="1.98793">
        <ele>114.05</ele>
        <time>2017-04-02T12:30:22Z</time>
      </trkpt>
      <trkpt lat="48.59603" lon="1.98792">
        <ele>113.57</ele>
        <time>2017-04-02T12:30:30Z</time>
      </trkpt>
      <trkpt lat="48.5962" lon="1.98794">
        <ele>112.61</ele>
        <time>2017-04-02T12:30:41Z</time>
      </trkpt>
      <trkpt lat="48.59627" lon="1.98792">
        <ele>111.65</ele>
        <time>2017-04-02T12:30:45Z</time>
      </trkpt>
      <trkpt lat="48.59639" lon="1.98792">
        <ele>110.69</ele>
        <time>2017-04-02T12:30:52Z</time>
      </trkpt>
      <trkpt lat="48.59645" lon="1.98793">
        <ele>110.21</ele>
        <time>2017-04-02T12:30:57Z</time>
      </trkpt>
      <trkpt lat="48.59653" lon="1.98794">
        <ele>109.73</ele>
        <time>2017-04-02T12:31:02Z</time>
      </trkpt>
      <trkpt lat="48.59662" lon="1.98797">
        <ele>109.73</ele>
        <time>2017-04-02T12:31:08Z</time>
      </trkpt>
      <trkpt lat="48.59666" lon="1.98794">
        <ele>109.25</ele>
        <time>2017-04-02T12:31:11Z</time>
      </trkpt>
      <trkpt lat="48.59684" lon="1.9879">
        <ele>108.29</ele>
        <time>2017-04-02T12:31:24Z</time>
      </trkpt>
      <trkpt lat="48.59691" lon="1.98788">
        <ele>108.29</ele>
        <time>2017-04-02T12:31:28Z</time>
      </trkpt>
      <trkpt lat="48.59711" lon="1.98791">
        <ele>106.84</ele>
        <time>2017-04-02T12:31:42Z</time>
      </trkpt>
      <trkpt lat="48.59714" lon="1.98792">
        <ele>106.84</ele>
        <time>2017-04-02T12:31:44Z</time>
      </trkpt>
      <trkpt lat="48.59722" lon="1.98793">
        <ele>106.36</ele>
        <time>2017-04-02T12:31:51Z</time>
      </trkpt>
      <trkpt lat="48.59746" lon="1.98793">
        <ele>105.88</ele>
        <time>2017-04-02T12:32:06Z</time>
      </trkpt>
      <trkpt lat="48.5975" lon="1.98791">
        <ele>105.4</ele>
        <time>2017-04-02T12:32:09Z</time>
      </trkpt>
      <trkpt lat="48.59758" lon="1.98793">
        <ele>104.92</ele>
        <time>2017-04-02T12:32:14Z</time>
      </trkpt>
      <trkpt lat="48.59768" lon="1.98793">
        <ele>104.92</ele>
        <time>2017-04-02T12:32:20Z</time>
      </trkpt>
      <trkpt lat="48.5978" lon="1.98792">
        <ele>104.44</ele>
        <time>2017-04-02T12:32:26Z</time>
      </trkpt>
      <trkpt lat="48.59796" lon="1.98795">
        <ele>103.96</ele>
        <time>2017-04-02T12:32:39Z</time>
      </trkpt>
      <trkpt lat="48.59814" lon="1.98795">
        <ele>102.52</ele>
        <time>2017-04-02T12:32:53Z</time>
      </trkpt>
      <trkpt lat="48.59815" lon="1.98795">
        <ele>102.52</ele>
        <time>2017-04-02T12:32:54Z</time>
      </trkpt>
      <trkpt lat="48.59819" lon="1.98795">
        <ele>102.52</ele>
        <time>2017-04-02T12:32:58Z</time>
      </trkpt>
      <trkpt lat="48.59823" lon="1.98794">
        <ele>102.04</ele>
        <time>2017-04-02T12:33:01Z</time>
      </trkpt>
      <trkpt lat="48.59831" lon="1.98793">
        <ele>102.04</ele>
        <time>2017-04-02T12:33:06Z</time>
      </trkpt>
      <trkpt lat="48.59836" lon="1.98792">
        <ele>101.56</ele>
        <time>2017-04-02T12:33:09Z</time>
      </trkpt>
      <trkpt lat="48.59859" lon="1.98787">
        <ele>101.08</ele>
        <time>2017-04-02T12:33:21Z</time>
      </trkpt>
      <trkpt lat="48.59869" lon="1.98785">
        <ele>100.6</ele>
        <time>2017-04-02T12:33:31Z</time>
      </trkpt>
      <trkpt lat="48.59875" lon="1.98783">
        <ele>100.11</ele>
        <time>2017-04-02T12:33:36Z</time>
      </trkpt>
      <trkpt lat="48.59893" lon="1.98777">
        <ele>99.15</ele>
        <time>2017-04-02T12:33:46Z</time>
      </trkpt>
      <trkpt lat="48.59898" lon="1.98776">
        <ele>99.63</ele>
        <time>2017-04-02T12:33:49Z</time>
      </trkpt>
      <trkpt lat="48.59916" lon="1.98772">
        <ele>98.67</ele>
        <time>2017-04-02T12:34:02Z</time>
      </trkpt>
      <trkpt lat="48.59932" lon="1.98768">
        <ele>98.19</ele>
        <time>2017-04-02T12:34:14Z</time>
      </trkpt>
      <trkpt lat="48.59956" lon="1.98761">
        <ele>98.19</ele>
        <time>2017-04-02T12:34:27Z</time>
      </trkpt>
      <trkpt lat="48.5997" lon="1.98756">
        <ele>97.23</ele>
        <time>2017-04-02T12:34:37Z</time>
      </trkpt>
      <trkpt lat="48.59978" lon="1.98755">
        <ele>97.71</ele>
        <time>2017-04-02T12:34:41Z</time>
      </trkpt>
      <trkpt lat="48.5999" lon="1.98748">
        <ele>96.75</ele>
        <time>2017-04-02T12:34:55Z</time>
      </trkpt>
      <trkpt lat="48.59991" lon="1.98747">
        <ele>97.23</ele>
        <time>2017-04-02T12:34:56Z</time>
      </trkpt>
      <trkpt lat="48.6001" lon="1.98743">
        <ele>96.75</ele>
        <time>2017-04-02T12:35:08Z</time>
      </trkpt>
      <trkpt lat="48.60019" lon="1.98741">
        <ele>96.75</ele>
        <time>2017-04-02T12:35:16Z</time>
      </trkpt>
      <trkpt lat="48.60025" lon="1.98739">
        <ele>96.75</ele>
        <time>2017-04-02T12:35:19Z</time>
      </trkpt>
      <trkpt lat="48.60035" lon="1.98737">
        <ele>97.23</ele>
        <time>2017-04-02T12:35:25Z</time>
      </trkpt>
      <trkpt lat="48.6004" lon="1.98736">
        <ele>97.23</ele>
        <time>2017-04-02T12:35:30Z</time>
      </trkpt>
      <trkpt lat="48.60052" lon="1.98732">
        <ele>97.23</ele>
        <time>2017-04-02T12:35:38Z</time>
      </trkpt>
      <trkpt lat="48.60064" lon="1.98727">
        <ele>98.19</ele>
        <time>2017-04-02T12:35:47Z</time>
      </trkpt>
      <trkpt lat="48.60077" lon="1.98715">
        <ele>98.67</ele>
        <time>2017-04-02T12:35:57Z</time>
      </trkpt>
      <trkpt lat="48.60083" lon="1.98712">
        <ele>98.67</ele>
        <time>2017-04-02T12:36:01Z</time>
      </trkpt>
      <trkpt lat="48.60092" lon="1.98705">
        <ele>99.15</ele>
        <time>2017-04-02T12:36:08Z</time>
      </trkpt>
      <trkpt lat="48.60095" lon="1.98703">
        <ele>99.15</ele>
        <time>2017-04-02T12:36:10Z</time>
      </trkpt>
      <trkpt lat="48.60108" lon="1.98699">
        <ele>99.63</ele>
        <time>2017-04-02T12:36:19Z</time>
      </trkpt>
      <trkpt lat="48.60119" lon="1.98691">
        <ele>99.63</ele>
        <time>2017-04-02T12:36:27Z</time>
      </trkpt>
      <trkpt lat="48.60125" lon="1.98674">
        <ele>99.63</ele>
        <time>2017-04-02T12:36:36Z</time>
      </trkpt>
      <trkpt lat="48.60116" lon="1.98669">
        <ele>99.63</ele>
        <time>2017-04-02T12:36:42Z</time>
      </trkpt>
      <trkpt lat="48.60115" lon="1.98664">
        <ele>100.11</ele>
        <time>2017-04-02T12:36:47Z</time>
      </trkpt>
      <trkpt lat="48.60111" lon="1.9865">
        <ele>100.11</ele>
        <time>2017-04-02T12:36:52Z</time>
      </trkpt>
      <trkpt lat="48.60102" lon="1.98625">
        <ele>100.6</ele>
        <time>2017-04-02T12:37:02Z</time>
      </trkpt>
      <trkpt lat="48.60092" lon="1.98607">
        <ele>101.56</ele>
        <time>2017-04-02T12:37:12Z</time>
      </trkpt>
      <trkpt lat="48.60088" lon="1.98601">
        <ele>101.56</ele>
        <time>2017-04-02T12:37:16Z</time>
      </trkpt>
      <trkpt lat="48.60086" lon="1.98597">
        <ele>101.56</ele>
        <time>2017-04-02T12:37:18Z</time>
      </trkpt>
      <trkpt lat="48.60075" lon="1.98583">
        <ele>102.04</ele>
        <time>2017-04-02T12:37:27Z</time>
      </trkpt>
      <trkpt lat="48.6006" lon="1.9857">
        <ele>102.52</ele>
        <time>2017-04-02T12:37:39Z</time>
      </trkpt>
      <trkpt lat="48.60058" lon="1.98567">
        <ele>102.52</ele>
        <time>2017-04-02T12:37:42Z</time>
      </trkpt>
      <trkpt lat="48.60044" lon="1.98553">
        <ele>103.48</ele>
        <time>2017-04-02T12:37:54Z</time>
      </trkpt>
      <trkpt lat="48.60038" lon="1.98534">
        <ele>104.92</ele>
        <time>2017-04-02T12:38:04Z</time>
      </trkpt>
      <trkpt lat="48.6003" lon="1.98517">
        <ele>104.92</ele>
        <time>2017-04-02T12:38:12Z</time>
      </trkpt>
      <trkpt lat="48.60029" lon="1.98516">
        <ele>104.92</ele>
        <time>2017-04-02T12:38:13Z</time>
      </trkpt>
      <trkpt lat="48.60027" lon="1.98513">
        <ele>105.4</ele>
        <time>2017-04-02T12:38:16Z</time>
      </trkpt>
      <trkpt lat="48.60022" lon="1.98502">
        <ele>106.36</ele>
        <time>2017-04-02T12:38:23Z</time>
      </trkpt>
      <trkpt lat="48.60019" lon="1.98494">
        <ele>106.84</ele>
        <time>2017-04-02T12:38:28Z</time>
      </trkpt>
      <trkpt lat="48.60017" lon="1.98484">
        <ele>107.32</ele>
        <time>2017-04-02T12:38:32Z</time>
      </trkpt>
      <trkpt lat="48.60023" lon="1.98467">
        <ele>108.77</ele>
        <time>2017-04-02T12:38:42Z</time>
      </trkpt>
      <trkpt lat="48.60033" lon="1.98461">
        <ele>109.73</ele>
        <time>2017-04-02T12:38:48Z</time>
      </trkpt>
      <trkpt lat="48.6004" lon="1.98456">
        <ele>110.21</ele>
        <time>2017-04-02T12:38:55Z</time>
      </trkpt>
      <trkpt lat="48.60047" lon="1.98453">
        <ele>110.21</ele>
        <time>2017-04-02T12:38:59Z</time>
      </trkpt>
      <trkpt lat="48.60058" lon="1.98441">
        <ele>110.69</ele>
        <time>2017-04-02T12:39:08Z</time>
      </trkpt>
      <trkpt lat="48.60062" lon="1.98438">
        <ele>111.17</ele>
        <time>2017-04-02T12:39:10Z</time>
      </trkpt>
      <trkpt lat="48.60069" lon="1.98432">
        <ele>110.69</ele>
        <time>2017-04-02T12:39:15Z</time>
      </trkpt>
      <trkpt lat="48.60075" lon="1.98428">
        <ele>110.69</ele>
        <time>2017-04-02T12:39:19Z</time>
      </trkpt>
      <trkpt lat="48.60084" lon="1.98419">
        <ele>110.21</ele>
        <time>2017-04-02T12:39:28Z</time>
      </trkpt>
      <trkpt lat="48.60088" lon="1.98413">
        <ele>109.73</ele>
        <time>2017-04-02T12:39:31Z</time>
      </trkpt>
      <trkpt lat="48.60094" lon="1.98412">
        <ele>109.73</ele>
        <time>2017-04-02T12:39:35Z</time>
      </trkpt>
      <trkpt lat="48.60096" lon="1.98411">
        <ele>109.73</ele>
        <time>2017-04-02T12:39:37Z</time>
      </trkpt>
      <trkpt lat="48.60109" lon="1.98402">
        <ele>108.77</ele>
        <time>2017-04-02T12:39:49Z</time>
      </trkpt>
      <trkpt lat="48.60118" lon="1.98392">
        <ele>108.29</ele>
        <time>2017-04-02T12:39:58Z</time>
      </trkpt>
      <trkpt lat="48.60136" lon="1.98376">
        <ele>106.36</ele>
        <time>2017-04-02T12:40:10Z</time>
      </trkpt>
      <trkpt lat="48.60141" lon="1.98366">
        <ele>105.88</ele>
        <time>2017-04-02T12:40:18Z</time>
      </trkpt>
      <trkpt lat="48.60142" lon="1.98361">
        <ele>105.4</ele>
        <time>2017-04-02T12:40:21Z</time>
      </trkpt>
      <trkpt lat="48.60158" lon="1.98367">
        <ele>103</ele>
        <time>2017-04-02T12:40:32Z</time>
      </trkpt>
      <trkpt lat="48.60164" lon="1.98365">
        <ele>103.48</ele>
        <time>2017-04-02T12:40:36Z</time>
      </trkpt>
      <trkpt lat="48.60166" lon="1.98361">
        <ele>103</ele>
        <time>2017-04-02T12:40:38Z</time>
      </trkpt>
      <trkpt lat="48.60171" lon="1.98355">
        <ele>103</ele>
        <time>2017-04-02T12:40:41Z</time>
      </trkpt>
      <trkpt lat="48.60183" lon="1.98355">
        <ele>103</ele>
        <time>2017-04-02T12:40:50Z</time>
      </trkpt>
      <trkpt lat="48.60192" lon="1.98354">
        <ele>103</ele>
        <time>2017-04-02T12:40:57Z</time>
      </trkpt>
      <trkpt lat="48.60199" lon="1.98352">
        <ele>103.48</ele>
        <time>2017-04-02T12:41:01Z</time>
      </trkpt>
      <trkpt lat="48.60213" lon="1.98344">
        <ele>104.44</ele>
        <time>2017-04-02T12:41:11Z</time>
      </trkpt>
      <trkpt lat="48.60218" lon="1.98331">
        <ele>105.4</ele>
        <time>2017-04-02T12:41:19Z</time>
      </trkpt>
      <trkpt lat="48.6023" lon="1.98319">
        <ele>106.36</ele>
        <time>2017-04-02T12:41:27Z</time>
      </trkpt>
      <trkpt lat="48.60244" lon="1.98304">
        <ele>107.81</ele>
        <time>2017-04-02T12:41:39Z</time>
      </trkpt>
      <trkpt lat="48.60248" lon="1.98304">
        <ele>106.84</ele>
        <time>2017-04-02T12:41:42Z</time>
      </trkpt>
      <trkpt lat="48.60259" lon="1.98299">
        <ele>108.29</ele>
        <time>2017-04-02T12:41:51Z</time>
      </trkpt>
      <trkpt lat="48.6027" lon="1.98298">
        <ele>106.84</ele>
        <time>2017-04-02T12:41:57Z</time>
      </trkpt>
      <trkpt lat="48.60278" lon="1.98293">
        <ele>106.36</ele>
        <time>2017-04-02T12:42:04Z</time>
      </trkpt>
      <trkpt lat="48.60282" lon="1.9829">
        <ele>105.88</ele>
        <time>2017-04-02T12:42:07Z</time>
      </trkpt>
      <trkpt lat="48.60289" lon="1.98288">
        <ele>105.4</ele>
        <time>2017-04-02T12:42:11Z</time>
      </trkpt>
      <trkpt lat="48.60292" lon="1.98286">
        <ele>105.4</ele>
        <time>2017-04-02T12:42:14Z</time>
      </trkpt>
      <trkpt lat="48.60295" lon="1.98282">
        <ele>104.92</ele>
        <time>2017-04-02T12:42:17Z</time>
      </trkpt>
      <trkpt lat="48.60312" lon="1.98274">
        <ele>103</ele>
        <time>2017-04-02T12:42:29Z</time>
      </trkpt>
      <trkpt lat="48.60316" lon="1.98274">
        <ele>102.04</ele>
        <time>2017-04-02T12:42:31Z</time>
      </trkpt>
      <trkpt lat="48.60319" lon="1.98274">
        <ele>101.08</ele>
        <time>2017-04-02T12:42:33Z</time>
      </trkpt>
      <trkpt lat="48.60323" lon="1.98271">
        <ele>99.63</ele>
        <time>2017-04-02T12:42:41Z</time>
      </trkpt>
      <trkpt lat="48.60325" lon="1.98267">
        <ele>100.11</ele>
        <time>2017-04-02T12:42:43Z</time>
      </trkpt>
      <trkpt lat="48.60332" lon="1.98255">
        <ele>98.19</ele>
        <time>2017-04-02T12:42:48Z</time>
      </trkpt>
      <trkpt lat="48.60336" lon="1.98248">
        <ele>97.23</ele>
        <time>2017-04-02T12:42:52Z</time>
      </trkpt>
      <trkpt lat="48.60339" lon="1.98244">
        <ele>96.75</ele>
        <time>2017-04-02T12:42:56Z</time>
      </trkpt>
      <trkpt lat="48.60351" lon="1.98232">
        <ele>95.31</ele>
        <time>2017-04-02T12:43:07Z</time>
      </trkpt>
      <trkpt lat="48.60354" lon="1.98228">
        <ele>93.87</ele>
        <time>2017-04-02T12:43:11Z</time>
      </trkpt>
      <trkpt lat="48.6036" lon="1.98217">
        <ele>93.87</ele>
        <time>2017-04-02T12:43:17Z</time>
      </trkpt>
      <trkpt lat="48.60363" lon="1.98213">
        <ele>93.87</ele>
        <time>2017-04-02T12:43:19Z</time>
      </trkpt>
      <trkpt lat="48.60369" lon="1.98209">
        <ele>93.87</ele>
        <time>2017-04-02T12:43:25Z</time>
      </trkpt>
      <trkpt lat="48.60376" lon="1.98206">
        <ele>93.39</ele>
        <time>2017-04-02T12:43:29Z</time>
      </trkpt>
      <trkpt lat="48.6038" lon="1.98199">
        <ele>93.87</ele>
        <time>2017-04-02T12:43:41Z</time>
      </trkpt>
      <trkpt lat="48.60379" lon="1.98199">
        <ele>93.87</ele>
        <time>2017-04-02T12:43:55Z</time>
      </trkpt>
      <trkpt lat="48.60377" lon="1.98197">
        <ele>93.87</ele>
        <time>2017-04-02T12:44:16Z</time>
      </trkpt>
      <trkpt lat="48.60377" lon="1.98195">
        <ele>93.87</ele>
        <time>2017-04-02T12:44:33Z</time>
      </trkpt>
      <trkpt lat="48.60378" lon="1.98194">
        <ele>93.87</ele>
        <time>2017-04-02T12:44:54Z</time>
      </trkpt>
      <trkpt lat="48.60377" lon="1.98194">
        <ele>93.39</ele>
        <time>2017-04-02T12:45:13Z</time>
      </trkpt>
      <trkpt lat="48.6037" lon="1.98189">
        <ele>94.35</ele>
        <time>2017-04-02T12:45:21Z</time>
      </trkpt>
      <trkpt lat="48.60364" lon="1.98184">
        <ele>94.83</ele>
        <time>2017-04-02T12:45:27Z</time>
      </trkpt>
      <trkpt lat="48.60358" lon="1.98182">
        <ele>94.83</ele>
        <time>2017-04-02T12:45:32Z</time>
      </trkpt>
      <trkpt lat="48.60354" lon="1.98179">
        <ele>94.83</ele>
        <time>2017-04-02T12:45:35Z</time>
      </trkpt>
      <trkpt lat="48.60345" lon="1.98169">
        <ele>95.31</ele>
        <time>2017-04-02T12:45:44Z</time>
      </trkpt>
      <trkpt lat="48.60342" lon="1.98163">
        <ele>95.31</ele>
        <time>2017-04-02T12:45:48Z</time>
      </trkpt>
      <trkpt lat="48.60344" lon="1.98146">
        <ele>95.31</ele>
        <time>2017-04-02T12:45:57Z</time>
      </trkpt>
      <trkpt lat="48.60358" lon="1.98127">
        <ele>96.27</ele>
        <time>2017-04-02T12:46:09Z</time>
      </trkpt>
      <trkpt lat="48.60362" lon="1.98117">
        <ele>96.75</ele>
        <time>2017-04-02T12:46:14Z</time>
      </trkpt>
      <trkpt lat="48.60364" lon="1.98089">
        <ele>97.71</ele>
        <time>2017-04-02T12:46:24Z</time>
      </trkpt>
      <trkpt lat="48.60371" lon="1.98072">
        <ele>98.19</ele>
        <time>2017-04-02T12:46:33Z</time>
      </trkpt>
      <trkpt lat="48.60375" lon="1.98064">
        <ele>98.19</ele>
        <time>2017-04-02T12:46:37Z</time>
      </trkpt>
      <trkpt lat="48.60376" lon="1.9806">
        <ele>98.67</ele>
        <time>2017-04-02T12:46:39Z</time>
      </trkpt>
      <trkpt lat="48.60392" lon="1.98029">
        <ele>99.63</ele>
        <time>2017-04-02T12:46:54Z</time>
      </trkpt>
      <trkpt lat="48.60406" lon="1.98005">
        <ele>99.63</ele>
        <time>2017-04-02T12:47:06Z</time>
      </trkpt>
      <trkpt lat="48.60417" lon="1.97981">
        <ele>100.11</ele>
        <time>2017-04-02T12:47:20Z</time>
      </trkpt>
      <trkpt lat="48.60428" lon="1.97951">
        <ele>100.6</ele>
        <time>2017-04-02T12:47:33Z</time>
      </trkpt>
      <trkpt lat="48.60433" lon="1.97939">
        <ele>100.6</ele>
        <time>2017-04-02T12:47:38Z</time>
      </trkpt>
      <trkpt lat="48.60436" lon="1.97936">
        <ele>101.08</ele>
        <time>2017-04-02T12:47:41Z</time>
      </trkpt>
      <trkpt lat="48.60439" lon="1.97931">
        <ele>101.08</ele>
        <time>2017-04-02T12:47:44Z</time>
      </trkpt>
      <trkpt lat="48.6045" lon="1.97909">
        <ele>101.08</ele>
        <time>2017-04-02T12:47:57Z</time>
      </trkpt>
      <trkpt lat="48.60456" lon="1.97898">
        <ele>101.08</ele>
        <time>2017-04-02T12:48:03Z</time>
      </trkpt>
      <trkpt lat="48.60463" lon="1.97877">
        <ele>101.08</ele>
        <time>2017-04-02T12:48:12Z</time>
      </trkpt>
      <trkpt lat="48.60471" lon="1.97858">
        <ele>101.56</ele>
        <time>2017-04-02T12:48:22Z</time>
      </trkpt>
      <trkpt lat="48.60476" lon="1.97852">
        <ele>101.56</ele>
        <time>2017-04-02T12:48:26Z</time>
      </trkpt>
      <trkpt lat="48.60487" lon="1.97829">
        <ele>102.04</ele>
        <time>2017-04-02T12:48:38Z</time>
      </trkpt>
      <trkpt lat="48.60489" lon="1.97825">
        <ele>101.56</ele>
        <time>2017-04-02T12:48:41Z</time>
      </trkpt>
      <trkpt lat="48.60493" lon="1.97815">
        <ele>101.56</ele>
        <time>2017-04-02T12:48:46Z</time>
      </trkpt>
      <trkpt lat="48.60504" lon="1.9779">
        <ele>102.04</ele>
        <time>2017-04-02T12:48:59Z</time>
      </trkpt>
      <trkpt lat="48.60512" lon="1.9777">
        <ele>101.56</ele>
        <time>2017-04-02T12:49:09Z</time>
      </trkpt>
      <trkpt lat="48.60516" lon="1.97756">
        <ele>102.52</ele>
        <time>2017-04-02T12:49:16Z</time>
      </trkpt>
      <trkpt lat="48.60519" lon="1.97747">
        <ele>102.52</ele>
        <time>2017-04-02T12:49:20Z</time>
      </trkpt>
      <trkpt lat="48.60527" lon="1.97723">
        <ele>101.56</ele>
        <time>2017-04-02T12:49:33Z</time>
      </trkpt>
      <trkpt lat="48.60527" lon="1.97715">
        <ele>101.08</ele>
        <time>2017-04-02T12:49:37Z</time>
      </trkpt>
      <trkpt lat="48.60526" lon="1.97713">
        <ele>101.08</ele>
        <time>2017-04-02T12:49:39Z</time>
      </trkpt>
      <trkpt lat="48.60513" lon="1.97704">
        <ele>102.04</ele>
        <time>2017-04-02T12:49:49Z</time>
      </trkpt>
      <trkpt lat="48.60512" lon="1.97703">
        <ele>102.04</ele>
        <time>2017-04-02T12:49:50Z</time>
      </trkpt>
      <trkpt lat="48.60509" lon="1.97695">
        <ele>102.52</ele>
        <time>2017-04-02T12:49:56Z</time>
      </trkpt>
      <trkpt lat="48.60493" lon="1.97685">
        <ele>103</ele>
        <time>2017-04-02T12:50:06Z</time>
      </trkpt>
      <trkpt lat="48.60488" lon="1.97681">
        <ele>103.48</ele>
        <time>2017-04-02T12:50:10Z</time>
      </trkpt>
      <trkpt lat="48.60476" lon="1.97668">
        <ele>104.44</ele>
        <time>2017-04-02T12:50:20Z</time>
      </trkpt>
      <trkpt lat="48.60467" lon="1.97657">
        <ele>104.44</ele>
        <time>2017-04-02T12:50:27Z</time>
      </trkpt>
      <trkpt lat="48.60459" lon="1.9765">
        <ele>104.92</ele>
        <time>2017-04-02T12:50:33Z</time>
      </trkpt>
      <trkpt lat="48.60452" lon="1.97645">
        <ele>105.4</ele>
        <time>2017-04-02T12:50:38Z</time>
      </trkpt>
      <trkpt lat="48.6045" lon="1.97639">
        <ele>105.88</ele>
        <time>2017-04-02T12:50:41Z</time>
      </trkpt>
      <trkpt lat="48.60445" lon="1.97632">
        <ele>105.88</ele>
        <time>2017-04-02T12:50:45Z</time>
      </trkpt>
      <trkpt lat="48.60438" lon="1.97623">
        <ele>105.88</ele>
        <time>2017-04-02T12:50:51Z</time>
      </trkpt>
      <trkpt lat="48.60423" lon="1.97609">
        <ele>106.84</ele>
        <time>2017-04-02T12:51:03Z</time>
      </trkpt>
      <trkpt lat="48.60412" lon="1.97595">
        <ele>107.32</ele>
        <time>2017-04-02T12:51:11Z</time>
      </trkpt>
      <trkpt lat="48.60405" lon="1.97589">
        <ele>107.32</ele>
        <time>2017-04-02T12:51:17Z</time>
      </trkpt>
      <trkpt lat="48.60393" lon="1.97575">
        <ele>107.81</ele>
        <time>2017-04-02T12:51:26Z</time>
      </trkpt>
      <trkpt lat="48.60389" lon="1.97571">
        <ele>107.81</ele>
        <time>2017-04-02T12:51:30Z</time>
      </trkpt>
      <trkpt lat="48.60378" lon="1.97565">
        <ele>108.29</ele>
        <time>2017-04-02T12:51:37Z</time>
      </trkpt>
      <trkpt lat="48.60374" lon="1.97561">
        <ele>108.77</ele>
        <time>2017-04-02T12:51:40Z</time>
      </trkpt>
      <trkpt lat="48.60364" lon="1.97552">
        <ele>109.73</ele>
        <time>2017-04-02T12:51:48Z</time>
      </trkpt>
      <trkpt lat="48.60358" lon="1.97546">
        <ele>110.21</ele>
        <time>2017-04-02T12:51:54Z</time>
      </trkpt>
      <trkpt lat="48.60349" lon="1.97538">
        <ele>110.69</ele>
        <time>2017-04-02T12:52:00Z</time>
      </trkpt>
      <trkpt lat="48.60345" lon="1.97533">
        <ele>110.69</ele>
        <time>2017-04-02T12:52:12Z</time>
      </trkpt>
      <trkpt lat="48.60345" lon="1.97529">
        <ele>111.17</ele>
        <time>2017-04-02T12:52:38Z</time>
      </trkpt>
      <trkpt lat="48.60342" lon="1.97521">
        <ele>111.65</ele>
        <time>2017-04-02T12:52:49Z</time>
      </trkpt>
      <trkpt lat="48.60341" lon="1.9752">
        <ele>111.65</ele>
        <time>2017-04-02T12:52:50Z</time>
      </trkpt>
      <trkpt lat="48.60335" lon="1.97512">
        <ele>111.65</ele>
        <time>2017-04-02T12:52:57Z</time>
      </trkpt>
      <trkpt lat="48.60318" lon="1.97497">
        <ele>113.09</ele>
        <time>2017-04-02T12:53:09Z</time>
      </trkpt>
      <trkpt lat="48.60317" lon="1.97496">
        <ele>112.61</ele>
        <time>2017-04-02T12:53:10Z</time>
      </trkpt>
      <trkpt lat="48.60305" lon="1.97483">
        <ele>115.01</ele>
        <time>2017-04-02T12:53:21Z</time>
      </trkpt>
      <trkpt lat="48.60296" lon="1.97475">
        <ele>115.5</ele>
        <time>2017-04-02T12:53:29Z</time>
      </trkpt>
      <trkpt lat="48.60286" lon="1.97466">
        <ele>117.9</ele>
        <time>2017-04-02T12:53:38Z</time>
      </trkpt>
      <trkpt lat="48.6027" lon="1.9745">
        <ele>121.26</ele>
        <time>2017-04-02T12:53:52Z</time>
      </trkpt>
      <trkpt lat="48.60264" lon="1.97443">
        <ele>123.19</ele>
        <time>2017-04-02T12:53:59Z</time>
      </trkpt>
      <trkpt lat="48.60256" lon="1.97438">
        <ele>124.63</ele>
        <time>2017-04-02T12:54:06Z</time>
      </trkpt>
      <trkpt lat="48.60245" lon="1.97427">
        <ele>128.47</ele>
        <time>2017-04-02T12:54:20Z</time>
      </trkpt>
      <trkpt lat="48.6024" lon="1.97422">
        <ele>128.95</ele>
        <time>2017-04-02T12:54:27Z</time>
      </trkpt>
      <trkpt lat="48.60233" lon="1.97417">
        <ele>129.92</ele>
        <time>2017-04-02T12:54:32Z</time>
      </trkpt>
      <trkpt lat="48.60212" lon="1.97397">
        <ele>132.8</ele>
        <time>2017-04-02T12:54:50Z</time>
      </trkpt>
      <trkpt lat="48.60198" lon="1.97382">
        <ele>133.76</ele>
        <time>2017-04-02T12:55:02Z</time>
      </trkpt>
      <trkpt lat="48.60195" lon="1.97379">
        <ele>133.76</ele>
        <time>2017-04-02T12:55:15Z</time>
      </trkpt>
      <trkpt lat="48.60196" lon="1.97381">
        <ele>133.76</ele>
        <time>2017-04-02T12:55:21Z</time>
      </trkpt>
      <trkpt lat="48.60192" lon="1.97375">
        <ele>133.76</ele>
        <time>2017-04-02T12:55:33Z</time>
      </trkpt>
      <trkpt lat="48.60189" lon="1.97371">
        <ele>134.24</ele>
        <time>2017-04-02T12:55:38Z</time>
      </trkpt>
      <trkpt lat="48.60173" lon="1.97354">
        <ele>134.24</ele>
        <time>2017-04-02T12:55:54Z</time>
      </trkpt>
      <trkpt lat="48.60171" lon="1.97351">
        <ele>134.24</ele>
        <time>2017-04-02T12:55:56Z</time>
      </trkpt>
      <trkpt lat="48.60168" lon="1.97347">
        <ele>134.72</ele>
        <time>2017-04-02T12:55:58Z</time>
      </trkpt>
      <trkpt lat="48.60156" lon="1.97334">
        <ele>135.68</ele>
        <time>2017-04-02T12:56:09Z</time>
      </trkpt>
      <trkpt lat="48.60158" lon="1.97307">
        <ele>135.2</ele>
        <time>2017-04-02T12:56:22Z</time>
      </trkpt>
      <trkpt lat="48.6016" lon="1.97299">
        <ele>135.68</ele>
        <time>2017-04-02T12:56:27Z</time>
      </trkpt>
      <trkpt lat="48.60171" lon="1.97275">
        <ele>134.72</ele>
        <time>2017-04-02T12:56:42Z</time>
      </trkpt>
      <trkpt lat="48.60184" lon="1.97253">
        <ele>133.76</ele>
        <time>2017-04-02T12:56:56Z</time>
      </trkpt>
      <trkpt lat="48.60189" lon="1.97239">
        <ele>130.4</ele>
        <time>2017-04-02T12:57:09Z</time>
      </trkpt>
      <trkpt lat="48.60196" lon="1.97229">
        <ele>128.47</ele>
        <time>2017-04-02T12:57:23Z</time>
      </trkpt>
      <trkpt lat="48.60198" lon="1.97209">
        <ele>126.55</ele>
        <time>2017-04-02T12:57:39Z</time>
      </trkpt>
      <trkpt lat="48.60206" lon="1.97193">
        <ele>122.71</ele>
        <time>2017-04-02T12:57:52Z</time>
      </trkpt>
      <trkpt lat="48.60217" lon="1.97171">
        <ele>119.82</ele>
        <time>2017-04-02T12:58:08Z</time>
      </trkpt>
      <trkpt lat="48.60224" lon="1.97161">
        <ele>118.86</ele>
        <time>2017-04-02T12:58:15Z</time>
      </trkpt>
      <trkpt lat="48.60239" lon="1.97133">
        <ele>115.98</ele>
        <time>2017-04-02T12:58:32Z</time>
      </trkpt>
      <trkpt lat="48.60244" lon="1.97121">
        <ele>115.5</ele>
        <time>2017-04-02T12:58:39Z</time>
      </trkpt>
      <trkpt lat="48.60247" lon="1.97109">
        <ele>114.53</ele>
        <time>2017-04-02T12:58:47Z</time>
      </trkpt>
      <trkpt lat="48.60241" lon="1.97102">
        <ele>115.5</ele>
        <time>2017-04-02T12:58:54Z</time>
      </trkpt>
      <trkpt lat="48.60229" lon="1.9709">
        <ele>116.46</ele>
        <time>2017-04-02T12:59:07Z</time>
      </trkpt>
      <trkpt lat="48.60224" lon="1.97086">
        <ele>117.42</ele>
        <time>2017-04-02T12:59:12Z</time>
      </trkpt>
      <trkpt lat="48.60216" lon="1.9708">
        <ele>116.46</ele>
        <time>2017-04-02T12:59:18Z</time>
      </trkpt>
      <trkpt lat="48.60201" lon="1.97076">
        <ele>118.86</ele>
        <time>2017-04-02T12:59:28Z</time>
      </trkpt>
      <trkpt lat="48.60186" lon="1.9707">
        <ele>119.82</ele>
        <time>2017-04-02T12:59:39Z</time>
      </trkpt>
      <trkpt lat="48.60166" lon="1.97064">
        <ele>121.74</ele>
        <time>2017-04-02T12:59:53Z</time>
      </trkpt>
      <trkpt lat="48.60164" lon="1.97064">
        <ele>121.26</ele>
        <time>2017-04-02T12:59:54Z</time>
      </trkpt>
      <trkpt lat="48.60157" lon="1.97063">
        <ele>121.74</ele>
        <time>2017-04-02T12:59:58Z</time>
      </trkpt>
      <trkpt lat="48.60153" lon="1.97063">
        <ele>122.71</ele>
        <time>2017-04-02T13:00:01Z</time>
      </trkpt>
      <trkpt lat="48.60135" lon="1.97061">
        <ele>123.19</ele>
        <time>2017-04-02T13:00:15Z</time>
      </trkpt>
      <trkpt lat="48.60133" lon="1.97062">
        <ele>124.63</ele>
        <time>2017-04-02T13:00:16Z</time>
      </trkpt>
      <trkpt lat="48.60122" lon="1.97058">
        <ele>125.11</ele>
        <time>2017-04-02T13:00:23Z</time>
      </trkpt>
      <trkpt lat="48.60105" lon="1.97057">
        <ele>126.07</ele>
        <time>2017-04-02T13:00:36Z</time>
      </trkpt>
      <trkpt lat="48.60097" lon="1.97059">
        <ele>127.03</ele>
        <time>2017-04-02T13:00:49Z</time>
      </trkpt>
      <trkpt lat="48.60079" lon="1.97069">
        <ele>127.03</ele>
        <time>2017-04-02T13:01:02Z</time>
      </trkpt>
      <trkpt lat="48.60067" lon="1.97078">
        <ele>127.51</ele>
        <time>2017-04-02T13:01:11Z</time>
      </trkpt>
      <trkpt lat="48.60049" lon="1.97098">
        <ele>127.03</ele>
        <time>2017-04-02T13:01:25Z</time>
      </trkpt>
      <trkpt lat="48.60034" lon="1.97116">
        <ele>127.99</ele>
        <time>2017-04-02T13:01:38Z</time>
      </trkpt>
      <trkpt lat="48.60021" lon="1.97128">
        <ele>127.51</ele>
        <time>2017-04-02T13:01:48Z</time>
      </trkpt>
      <trkpt lat="48.59998" lon="1.9714">
        <ele>127.99</ele>
        <time>2017-04-02T13:02:02Z</time>
      </trkpt>
      <trkpt lat="48.59989" lon="1.9714">
        <ele>127.99</ele>
        <time>2017-04-02T13:02:08Z</time>
      </trkpt>
      <trkpt lat="48.59985" lon="1.97142">
        <ele>127.99</ele>
        <time>2017-04-02T13:02:11Z</time>
      </trkpt>
      <trkpt lat="48.5998" lon="1.97145">
        <ele>127.99</ele>
        <time>2017-04-02T13:02:14Z</time>
      </trkpt>
      <trkpt lat="48.59966" lon="1.97149">
        <ele>127.51</ele>
        <time>2017-04-02T13:02:25Z</time>
      </trkpt>
      <trkpt lat="48.59955" lon="1.97151">
        <ele>127.03</ele>
        <time>2017-04-02T13:02:31Z</time>
      </trkpt>
      <trkpt lat="48.59941" lon="1.97152">
        <ele>125.59</ele>
        <time>2017-04-02T13:02:43Z</time>
      </trkpt>
      <trkpt lat="48.59924" lon="1.97157">
        <ele>124.15</ele>
        <time>2017-04-02T13:02:55Z</time>
      </trkpt>
      <trkpt lat="48.59903" lon="1.97166">
        <ele>123.19</ele>
        <time>2017-04-02T13:03:11Z</time>
      </trkpt>
      <trkpt lat="48.59892" lon="1.97171">
        <ele>122.22</ele>
        <time>2017-04-02T13:03:18Z</time>
      </trkpt>
      <trkpt lat="48.59873" lon="1.97183">
        <ele>121.74</ele>
        <time>2017-04-02T13:03:30Z</time>
      </trkpt>
      <trkpt lat="48.59856" lon="1.97187">
        <ele>121.26</ele>
        <time>2017-04-02T13:03:41Z</time>
      </trkpt>
      <trkpt lat="48.59853" lon="1.97188">
        <ele>121.26</ele>
        <time>2017-04-02T13:03:43Z</time>
      </trkpt>
      <trkpt lat="48.59833" lon="1.97193">
        <ele>120.78</ele>
        <time>2017-04-02T13:03:58Z</time>
      </trkpt>
      <trkpt lat="48.59819" lon="1.97196">
        <ele>120.78</ele>
        <time>2017-04-02T13:04:10Z</time>
      </trkpt>
      <trkpt lat="48.59813" lon="1.97199">
        <ele>120.3</ele>
        <time>2017-04-02T13:04:14Z</time>
      </trkpt>
      <trkpt lat="48.59787" lon="1.97208">
        <ele>121.26</ele>
        <time>2017-04-02T13:04:32Z</time>
      </trkpt>
      <trkpt lat="48.59783" lon="1.9721">
        <ele>120.78</ele>
        <time>2017-04-02T13:04:35Z</time>
      </trkpt>
      <trkpt lat="48.59766" lon="1.97214">
        <ele>120.78</ele>
        <time>2017-04-02T13:04:49Z</time>
      </trkpt>
      <trkpt lat="48.59752" lon="1.97221">
        <ele>119.82</ele>
        <time>2017-04-02T13:05:04Z</time>
      </trkpt>
      <trkpt lat="48.59742" lon="1.97224">
        <ele>119.34</ele>
        <time>2017-04-02T13:05:13Z</time>
      </trkpt>
      <trkpt lat="48.59728" lon="1.97226">
        <ele>118.86</ele>
        <time>2017-04-02T13:05:28Z</time>
      </trkpt>
      <trkpt lat="48.59713" lon="1.97233">
        <ele>117.42</ele>
        <time>2017-04-02T13:05:41Z</time>
      </trkpt>
      <trkpt lat="48.59697" lon="1.97243">
        <ele>116.94</ele>
        <time>2017-04-02T13:05:56Z</time>
      </trkpt>
      <trkpt lat="48.59673" lon="1.97259">
        <ele>117.42</ele>
        <time>2017-04-02T13:06:10Z</time>
      </trkpt>
      <trkpt lat="48.59663" lon="1.97267">
        <ele>117.9</ele>
        <time>2017-04-02T13:06:25Z</time>
      </trkpt>
      <trkpt lat="48.59644" lon="1.97282">
        <ele>118.86</ele>
        <time>2017-04-02T13:06:40Z</time>
      </trkpt>
      <trkpt lat="48.59627" lon="1.97294">
        <ele>120.78</ele>
        <time>2017-04-02T13:06:50Z</time>
      </trkpt>
      <trkpt lat="48.59622" lon="1.97299">
        <ele>120.78</ele>
        <time>2017-04-02T13:06:54Z</time>
      </trkpt>
      <trkpt lat="48.59607" lon="1.97313">
        <ele>121.26</ele>
        <time>2017-04-02T13:07:04Z</time>
      </trkpt>
      <trkpt lat="48.59592" lon="1.97324">
        <ele>121.74</ele>
        <time>2017-04-02T13:07:15Z</time>
      </trkpt>
      <trkpt lat="48.59574" lon="1.97336">
        <ele>122.22</ele>
        <time>2017-04-02T13:07:27Z</time>
      </trkpt>
      <trkpt lat="48.59561" lon="1.97337">
        <ele>121.74</ele>
        <time>2017-04-02T13:07:41Z</time>
      </trkpt>
      <trkpt lat="48.59543" lon="1.97342">
        <ele>121.74</ele>
        <time>2017-04-02T13:07:54Z</time>
      </trkpt>
      <trkpt lat="48.59535" lon="1.97347">
        <ele>121.74</ele>
        <time>2017-04-02T13:08:01Z</time>
      </trkpt>
      <trkpt lat="48.59518" lon="1.97357">
        <ele>122.22</ele>
        <time>2017-04-02T13:08:16Z</time>
      </trkpt>
      <trkpt lat="48.59512" lon="1.97365">
        <ele>124.15</ele>
        <time>2017-04-02T13:08:23Z</time>
      </trkpt>
      <trkpt lat="48.59506" lon="1.97369">
        <ele>124.15</ele>
        <time>2017-04-02T13:08:29Z</time>
      </trkpt>
      <trkpt lat="48.59498" lon="1.97384">
        <ele>124.15</ele>
        <time>2017-04-02T13:08:36Z</time>
      </trkpt>
      <trkpt lat="48.59495" lon="1.97387">
        <ele>124.15</ele>
        <time>2017-04-02T13:08:39Z</time>
      </trkpt>
      <trkpt lat="48.59486" lon="1.97398">
        <ele>123.67</ele>
        <time>2017-04-02T13:08:51Z</time>
      </trkpt>
      <trkpt lat="48.59477" lon="1.97414">
        <ele>123.67</ele>
        <time>2017-04-02T13:09:06Z</time>
      </trkpt>
      <trkpt lat="48.59477" lon="1.97415">
        <ele>123.67</ele>
        <time>2017-04-02T13:09:28Z</time>
      </trkpt>
      <trkpt lat="48.59477" lon="1.97414">
        <ele>123.67</ele>
        <time>2017-04-02T13:09:29Z</time>
      </trkpt>
      <trkpt lat="48.59474" lon="1.97402">
        <ele>123.67</ele>
        <time>2017-04-02T13:09:36Z</time>
      </trkpt>
      <trkpt lat="48.59468" lon="1.97377">
        <ele>124.15</ele>
        <time>2017-04-02T13:09:49Z</time>
      </trkpt>
      <trkpt lat="48.59465" lon="1.97352">
        <ele>125.59</ele>
        <time>2017-04-02T13:10:04Z</time>
      </trkpt>
      <trkpt lat="48.59461" lon="1.97338">
        <ele>126.55</ele>
        <time>2017-04-02T13:10:13Z</time>
      </trkpt>
      <trkpt lat="48.5946" lon="1.97318">
        <ele>130.4</ele>
        <time>2017-04-02T13:10:26Z</time>
      </trkpt>
      <trkpt lat="48.5946" lon="1.97304">
        <ele>133.28</ele>
        <time>2017-04-02T13:10:35Z</time>
      </trkpt>
      <trkpt lat="48.59456" lon="1.97284">
        <ele>136.64</ele>
        <time>2017-04-02T13:10:49Z</time>
      </trkpt>
      <trkpt lat="48.59449" lon="1.97271">
        <ele>138.57</ele>
        <time>2017-04-02T13:11:00Z</time>
      </trkpt>
      <trkpt lat="48.59436" lon="1.97261">
        <ele>140.49</ele>
        <time>2017-04-02T13:11:13Z</time>
      </trkpt>
      <trkpt lat="48.59432" lon="1.97251">
        <ele>141.45</ele>
        <time>2017-04-02T13:11:27Z</time>
      </trkpt>
      <trkpt lat="48.59432" lon="1.97251">
        <ele>141.45</ele>
        <time>2017-04-02T13:11:44Z</time>
      </trkpt>
      <trkpt lat="48.59427" lon="1.97246">
        <ele>140.97</ele>
        <time>2017-04-02T13:11:58Z</time>
      </trkpt>
      <trkpt lat="48.59423" lon="1.97237">
        <ele>141.93</ele>
        <time>2017-04-02T13:12:14Z</time>
      </trkpt>
      <trkpt lat="48.59425" lon="1.97225">
        <ele>143.37</ele>
        <time>2017-04-02T13:12:20Z</time>
      </trkpt>
      <trkpt lat="48.59424" lon="1.97215">
        <ele>143.37</ele>
        <time>2017-04-02T13:12:25Z</time>
      </trkpt>
      <trkpt lat="48.59427" lon="1.97209">
        <ele>144.34</ele>
        <time>2017-04-02T13:12:29Z</time>
      </trkpt>
      <trkpt lat="48.5944" lon="1.97186">
        <ele>144.34</ele>
        <time>2017-04-02T13:12:44Z</time>
      </trkpt>
      <trkpt lat="48.5944" lon="1.97185">
        <ele>144.34</ele>
        <time>2017-04-02T13:12:45Z</time>
      </trkpt>
      <trkpt lat="48.59439" lon="1.97171">
        <ele>143.85</ele>
        <time>2017-04-02T13:12:52Z</time>
      </trkpt>
      <trkpt lat="48.59435" lon="1.97149">
        <ele>144.34</ele>
        <time>2017-04-02T13:13:05Z</time>
      </trkpt>
      <trkpt lat="48.59433" lon="1.97143">
        <ele>144.34</ele>
        <time>2017-04-02T13:13:09Z</time>
      </trkpt>
      <trkpt lat="48.59435" lon="1.97129">
        <ele>144.34</ele>
        <time>2017-04-02T13:13:17Z</time>
      </trkpt>
      <trkpt lat="48.59435" lon="1.97111">
        <ele>143.85</ele>
        <time>2017-04-02T13:13:25Z</time>
      </trkpt>
      <trkpt lat="48.59432" lon="1.97086">
        <ele>144.82</ele>
        <time>2017-04-02T13:13:37Z</time>
      </trkpt>
      <trkpt lat="48.59427" lon="1.97074">
        <ele>144.34</ele>
        <time>2017-04-02T13:13:45Z</time>
      </trkpt>
      <trkpt lat="48.59423" lon="1.97051">
        <ele>144.34</ele>
        <time>2017-04-02T13:13:57Z</time>
      </trkpt>
      <trkpt lat="48.59418" lon="1.97021">
        <ele>144.34</ele>
        <time>2017-04-02T13:14:11Z</time>
      </trkpt>
      <trkpt lat="48.59423" lon="1.96994">
        <ele>143.85</ele>
        <time>2017-04-02T13:14:24Z</time>
      </trkpt>
      <trkpt lat="48.59423" lon="1.96991">
        <ele>143.85</ele>
        <time>2017-04-02T13:14:26Z</time>
      </trkpt>
      <trkpt lat="48.59423" lon="1.96977">
        <ele>143.37</ele>
        <time>2017-04-02T13:14:32Z</time>
      </trkpt>
      <trkpt lat="48.59423" lon="1.96969">
        <ele>142.41</ele>
        <time>2017-04-02T13:14:37Z</time>
      </trkpt>
      <trkpt lat="48.59418" lon="1.96962">
        <ele>143.37</ele>
        <time>2017-04-02T13:14:42Z</time>
      </trkpt>
      <trkpt lat="48.59407" lon="1.96938">
        <ele>143.85</ele>
        <time>2017-04-02T13:14:55Z</time>
      </trkpt>
      <trkpt lat="48.59403" lon="1.96906">
        <ele>144.82</ele>
        <time>2017-04-02T13:15:10Z</time>
      </trkpt>
      <trkpt lat="48.59401" lon="1.96896">
        <ele>144.82</ele>
        <time>2017-04-02T13:15:15Z</time>
      </trkpt>
      <trkpt lat="48.59411" lon="1.96873">
        <ele>144.82</ele>
        <time>2017-04-02T13:15:28Z</time>
      </trkpt>
      <trkpt lat="48.59412" lon="1.96872">
        <ele>144.34</ele>
        <time>2017-04-02T13:15:29Z</time>
      </trkpt>
      <trkpt lat="48.59428" lon="1.96857">
        <ele>142.41</ele>
        <time>2017-04-02T13:15:43Z</time>
      </trkpt>
      <trkpt lat="48.59441" lon="1.96846">
        <ele>140.49</ele>
        <time>2017-04-02T13:15:56Z</time>
      </trkpt>
      <trkpt lat="48.59441" lon="1.96844">
        <ele>140.49</ele>
        <time>2017-04-02T13:15:57Z</time>
      </trkpt>
      <trkpt lat="48.59441" lon="1.96818">
        <ele>137.61</ele>
        <time>2017-04-02T13:16:11Z</time>
      </trkpt>
      <trkpt lat="48.59431" lon="1.96789">
        <ele>135.68</ele>
        <time>2017-04-02T13:16:26Z</time>
      </trkpt>
      <trkpt lat="48.5942" lon="1.96762">
        <ele>133.76</ele>
        <time>2017-04-02T13:16:41Z</time>
      </trkpt>
      <trkpt lat="48.59415" lon="1.96737">
        <ele>131.84</ele>
        <time>2017-04-02T13:16:53Z</time>
      </trkpt>
      <trkpt lat="48.59416" lon="1.96708">
        <ele>129.92</ele>
        <time>2017-04-02T13:17:06Z</time>
      </trkpt>
      <trkpt lat="48.59412" lon="1.96701">
        <ele>129.43</ele>
        <time>2017-04-02T13:17:11Z</time>
      </trkpt>
      <trkpt lat="48.59402" lon="1.96692">
        <ele>127.99</ele>
        <time>2017-04-02T13:17:23Z</time>
      </trkpt>
      <trkpt lat="48.59389" lon="1.96713">
        <ele>128.47</ele>
        <time>2017-04-02T13:17:36Z</time>
      </trkpt>
      <trkpt lat="48.59386" lon="1.96724">
        <ele>128.95</ele>
        <time>2017-04-02T13:17:42Z</time>
      </trkpt>
      <trkpt lat="48.59381" lon="1.96738">
        <ele>129.43</ele>
        <time>2017-04-02T13:17:53Z</time>
      </trkpt>
      <trkpt lat="48.5938" lon="1.96741">
        <ele>129.43</ele>
        <time>2017-04-02T13:17:57Z</time>
      </trkpt>
      <trkpt lat="48.59368" lon="1.96765">
        <ele>129.92</ele>
        <time>2017-04-02T13:18:11Z</time>
      </trkpt>
      <trkpt lat="48.59356" lon="1.96789">
        <ele>130.4</ele>
        <time>2017-04-02T13:18:26Z</time>
      </trkpt>
      <trkpt lat="48.59351" lon="1.96799">
        <ele>128.95</ele>
        <time>2017-04-02T13:18:33Z</time>
      </trkpt>
      <trkpt lat="48.59348" lon="1.96803">
        <ele>128.95</ele>
        <time>2017-04-02T13:18:36Z</time>
      </trkpt>
      <trkpt lat="48.59338" lon="1.96828">
        <ele>126.07</ele>
        <time>2017-04-02T13:18:51Z</time>
      </trkpt>
      <trkpt lat="48.59334" lon="1.96834">
        <ele>125.59</ele>
        <time>2017-04-02T13:18:55Z</time>
      </trkpt>
      <trkpt lat="48.59322" lon="1.96863">
        <ele>123.67</ele>
        <time>2017-04-02T13:19:11Z</time>
      </trkpt>
      <trkpt lat="48.59314" lon="1.96883">
        <ele>120.78</ele>
        <time>2017-04-02T13:19:27Z</time>
      </trkpt>
      <trkpt lat="48.59305" lon="1.96905">
        <ele>117.9</ele>
        <time>2017-04-02T13:19:41Z</time>
      </trkpt>
      <trkpt lat="48.59292" lon="1.96934">
        <ele>115.98</ele>
        <time>2017-04-02T13:19:58Z</time>
      </trkpt>
      <trkpt lat="48.5928" lon="1.9696">
        <ele>113.09</ele>
        <time>2017-04-02T13:20:11Z</time>
      </trkpt>
      <trkpt lat="48.59262" lon="1.96992">
        <ele>110.69</ele>
        <time>2017-04-02T13:20:26Z</time>
      </trkpt>
      <trkpt lat="48.59255" lon="1.97008">
        <ele>109.73</ele>
        <time>2017-04-02T13:20:35Z</time>
      </trkpt>
      <trkpt lat="48.59244" lon="1.97029">
        <ele>110.21</ele>
        <time>2017-04-02T13:20:49Z</time>
      </trkpt>
      <trkpt lat="48.59236" lon="1.97049">
        <ele>108.77</ele>
        <time>2017-04-02T13:21:04Z</time>
      </trkpt>
      <trkpt lat="48.59226" lon="1.97067">
        <ele>108.77</ele>
        <time>2017-04-02T13:21:17Z</time>
      </trkpt>
      <trkpt lat="48.5922" lon="1.9708">
        <ele>108.29</ele>
        <time>2017-04-02T13:21:27Z</time>
      </trkpt>
      <trkpt lat="48.59219" lon="1.97084">
        <ele>107.81</ele>
        <time>2017-04-02T13:21:29Z</time>
      </trkpt>
      <trkpt lat="48.59207" lon="1.97112">
        <ele>107.81</ele>
        <time>2017-04-02T13:21:44Z</time>
      </trkpt>
      <trkpt lat="48.59191" lon="1.97145">
        <ele>105.88</ele>
        <time>2017-04-02T13:22:00Z</time>
      </trkpt>
      <trkpt lat="48.59176" lon="1.97177">
        <ele>104.44</ele>
        <time>2017-04-02T13:22:14Z</time>
      </trkpt>
      <trkpt lat="48.59167" lon="1.97194">
        <ele>103.96</ele>
        <time>2017-04-02T13:22:27Z</time>
      </trkpt>
      <trkpt lat="48.59165" lon="1.97205">
        <ele>103.48</ele>
        <time>2017-04-02T13:22:44Z</time>
      </trkpt>
      <trkpt lat="48.59167" lon="1.97209">
        <ele>103.96</ele>
        <time>2017-04-02T13:23:03Z</time>
      </trkpt>
      <trkpt lat="48.59166" lon="1.97211">
        <ele>103.48</ele>
        <time>2017-04-02T13:23:30Z</time>
      </trkpt>
      <trkpt lat="48.59166" lon="1.97211">
        <ele>106.84</ele>
        <time>2017-04-02T13:23:31Z</time>
      </trkpt>
      <trkpt lat="48.59166" lon="1.97211">
        <ele>104.44</ele>
        <time>2017-04-02T13:23:32Z</time>
      </trkpt>
      <trkpt lat="48.59166" lon="1.97211">
        <ele>103.48</ele>
        <time>2017-04-02T13:23:55Z</time>
      </trkpt>
      <trkpt lat="48.59166" lon="1.97212">
        <ele>99.15</ele>
        <time>2017-04-02T13:24:03Z</time>
      </trkpt>
      <trkpt lat="48.59166" lon="1.97212">
        <ele>103.96</ele>
        <time>2017-04-02T13:24:05Z</time>
      </trkpt>
      <trkpt lat="48.59166" lon="1.97212">
        <ele>103.48</ele>
        <time>2017-04-02T13:24:06Z</time>
      </trkpt>
      <trkpt lat="48.59166" lon="1.97212">
        <ele>102.04</ele>
        <time>2017-04-02T13:24:08Z</time>
      </trkpt>
      <trkpt lat="48.59166" lon="1.97212">
        <ele>107.32</ele>
        <time>2017-04-02T13:24:10Z</time>
      </trkpt>
      <trkpt lat="48.59166" lon="1.97212">
        <ele>103.96</ele>
        <time>2017-04-02T13:24:11Z</time>
      </trkpt>
      <trkpt lat="48.59166" lon="1.97212">
        <ele>99.15</ele>
        <time>2017-04-02T13:24:13Z</time>
      </trkpt>
      <trkpt lat="48.59166" lon="1.97212">
        <ele>109.73</ele>
        <time>2017-04-02T13:24:14Z</time>
      </trkpt>
      <trkpt lat="48.59166" lon="1.97212">
        <ele>105.4</ele>
        <time>2017-04-02T13:24:15Z</time>
      </trkpt>
      <trkpt lat="48.59166" lon="1.97212">
        <ele>112.61</ele>
        <time>2017-04-02T13:24:16Z</time>
      </trkpt>
      <trkpt lat="48.59166" lon="1.97212">
        <ele>99.15</ele>
        <time>2017-04-02T13:24:17Z</time>
      </trkpt>
      <trkpt lat="48.59166" lon="1.97212">
        <ele>106.84</ele>
        <time>2017-04-02T13:24:18Z</time>
      </trkpt>
      <trkpt lat="48.59166" lon="1.97212">
        <ele>103.96</ele>
        <time>2017-04-02T13:24:21Z</time>
      </trkpt>
      <trkpt lat="48.59166" lon="1.97212">
        <ele>98.19</ele>
        <time>2017-04-02T13:24:35Z</time>
      </trkpt>
      <trkpt lat="48.59166" lon="1.97212">
        <ele>102.04</ele>
        <time>2017-04-02T13:24:36Z</time>
      </trkpt>
      <trkpt lat="48.59166" lon="1.97213">
        <ele>106.84</ele>
        <time>2017-04-02T13:24:41Z</time>
      </trkpt>
      <trkpt lat="48.59166" lon="1.97213">
        <ele>99.63</ele>
        <time>2017-04-02T13:24:43Z</time>
      </trkpt>
      <trkpt lat="48.59166" lon="1.97213">
        <ele>103.48</ele>
        <time>2017-04-02T13:24:44Z</time>
      </trkpt>
      <trkpt lat="48.59166" lon="1.97213">
        <ele>106.84</ele>
        <time>2017-04-02T13:24:45Z</time>
      </trkpt>
      <trkpt lat="48.59166" lon="1.97213">
        <ele>103.96</ele>
        <time>2017-04-02T13:24:46Z</time>
      </trkpt>
      <trkpt lat="48.59166" lon="1.97213">
        <ele>108.77</ele>
        <time>2017-04-02T13:24:49Z</time>
      </trkpt>
      <trkpt lat="48.59166" lon="1.97213">
        <ele>102.52</ele>
        <time>2017-04-02T13:24:50Z</time>
      </trkpt>
      <trkpt lat="48.59166" lon="1.97213">
        <ele>109.25</ele>
        <time>2017-04-02T13:24:54Z</time>
      </trkpt>
      <trkpt lat="48.59166" lon="1.97213">
        <ele>104.44</ele>
        <time>2017-04-02T13:24:55Z</time>
      </trkpt>
      <trkpt lat="48.59166" lon="1.97213">
        <ele>100.11</ele>
        <time>2017-04-02T13:25:04Z</time>
      </trkpt>
      <trkpt lat="48.59166" lon="1.97213">
        <ele>105.88</ele>
        <time>2017-04-02T13:25:05Z</time>
      </trkpt>
      <trkpt lat="48.59165" lon="1.97213">
        <ele>101.56</ele>
        <time>2017-04-02T13:25:22Z</time>
      </trkpt>
      <trkpt lat="48.59165" lon="1.97213">
        <ele>104.92</ele>
        <time>2017-04-02T13:25:23Z</time>
      </trkpt>
      <trkpt lat="48.59166" lon="1.97214">
        <ele>103.96</ele>
        <time>2017-04-02T13:25:44Z</time>
      </trkpt>
      <trkpt lat="48.59164" lon="1.97212">
        <ele>103.96</ele>
        <time>2017-04-02T13:25:59Z</time>
      </trkpt>
      <trkpt lat="48.59164" lon="1.97214">
        <ele>103.48</ele>
        <time>2017-04-02T13:26:27Z</time>
      </trkpt>
      <trkpt lat="48.59164" lon="1.97213">
        <ele>103.48</ele>
        <time>2017-04-02T13:26:45Z</time>
      </trkpt>
      <trkpt lat="48.59161" lon="1.97211">
        <ele>103.48</ele>
        <time>2017-04-02T13:26:59Z</time>
      </trkpt>
      <trkpt lat="48.59153" lon="1.97225">
        <ele>103.48</ele>
        <time>2017-04-02T13:27:15Z</time>
      </trkpt>
      <trkpt lat="48.59142" lon="1.97247">
        <ele>103.48</ele>
        <time>2017-04-02T13:27:31Z</time>
      </trkpt>
      <trkpt lat="48.5913" lon="1.97273">
        <ele>103.48</ele>
        <time>2017-04-02T13:27:46Z</time>
      </trkpt>
      <trkpt lat="48.59116" lon="1.97303">
        <ele>102.04</ele>
        <time>2017-04-02T13:28:02Z</time>
      </trkpt>
      <trkpt lat="48.59107" lon="1.97311">
        <ele>102.04</ele>
        <time>2017-04-02T13:28:14Z</time>
      </trkpt>
      <trkpt lat="48.59092" lon="1.97305">
        <ele>101.56</ele>
        <time>2017-04-02T13:28:28Z</time>
      </trkpt>
      <trkpt lat="48.59063" lon="1.97286">
        <ele>100.6</ele>
        <time>2017-04-02T13:28:45Z</time>
      </trkpt>
      <trkpt lat="48.59048" lon="1.97278">
        <ele>100.11</ele>
        <time>2017-04-02T13:29:01Z</time>
      </trkpt>
      <trkpt lat="48.59033" lon="1.97264">
        <ele>99.15</ele>
        <time>2017-04-02T13:29:15Z</time>
      </trkpt>
      <trkpt lat="48.59031" lon="1.97229">
        <ele>99.15</ele>
        <time>2017-04-02T13:29:30Z</time>
      </trkpt>
      <trkpt lat="48.59033" lon="1.97196">
        <ele>100.11</ele>
        <time>2017-04-02T13:29:46Z</time>
      </trkpt>
      <trkpt lat="48.59041" lon="1.97157">
        <ele>99.15</ele>
        <time>2017-04-02T13:30:05Z</time>
      </trkpt>
      <trkpt lat="48.59043" lon="1.97149">
        <ele>100.11</ele>
        <time>2017-04-02T13:30:08Z</time>
      </trkpt>
      <trkpt lat="48.59048" lon="1.9711">
        <ele>99.15</ele>
        <time>2017-04-02T13:30:24Z</time>
      </trkpt>
      <trkpt lat="48.59053" lon="1.97076">
        <ele>99.63</ele>
        <time>2017-04-02T13:30:40Z</time>
      </trkpt>
      <trkpt lat="48.59058" lon="1.97056">
        <ele>100.11</ele>
        <time>2017-04-02T13:30:50Z</time>
      </trkpt>
      <trkpt lat="48.59066" lon="1.97017">
        <ele>101.08</ele>
        <time>2017-04-02T13:31:08Z</time>
      </trkpt>
      <trkpt lat="48.59069" lon="1.96979">
        <ele>100.6</ele>
        <time>2017-04-02T13:31:23Z</time>
      </trkpt>
      <trkpt lat="48.59079" lon="1.96951">
        <ele>101.08</ele>
        <time>2017-04-02T13:31:38Z</time>
      </trkpt>
      <trkpt lat="48.59087" lon="1.96934">
        <ele>100.11</ele>
        <time>2017-04-02T13:31:52Z</time>
      </trkpt>
      <trkpt lat="48.59098" lon="1.96912">
        <ele>100.6</ele>
        <time>2017-04-02T13:32:08Z</time>
      </trkpt>
      <trkpt lat="48.59109" lon="1.9689">
        <ele>101.56</ele>
        <time>2017-04-02T13:32:24Z</time>
      </trkpt>
      <trkpt lat="48.59116" lon="1.96864">
        <ele>101.08</ele>
        <time>2017-04-02T13:32:39Z</time>
      </trkpt>
      <trkpt lat="48.59129" lon="1.96835">
        <ele>101.08</ele>
        <time>2017-04-02T13:32:54Z</time>
      </trkpt>
      <trkpt lat="48.59131" lon="1.96829">
        <ele>102.04</ele>
        <time>2017-04-02T13:32:57Z</time>
      </trkpt>
      <trkpt lat="48.59142" lon="1.96793">
        <ele>101.08</ele>
        <time>2017-04-02T13:33:14Z</time>
      </trkpt>
      <trkpt lat="48.59151" lon="1.96752">
        <ele>102.52</ele>
        <time>2017-04-02T13:33:30Z</time>
      </trkpt>
      <trkpt lat="48.59158" lon="1.96732">
        <ele>103</ele>
        <time>2017-04-02T13:33:46Z</time>
      </trkpt>
      <trkpt lat="48.59158" lon="1.96694">
        <ele>103</ele>
        <time>2017-04-02T13:34:03Z</time>
      </trkpt>
      <trkpt lat="48.59155" lon="1.96664">
        <ele>102.52</ele>
        <time>2017-04-02T13:34:13Z</time>
      </trkpt>
      <trkpt lat="48.59154" lon="1.96652">
        <ele>103</ele>
        <time>2017-04-02T13:34:16Z</time>
      </trkpt>
      <trkpt lat="48.59156" lon="1.96616">
        <ele>102.04</ele>
        <time>2017-04-02T13:34:30Z</time>
      </trkpt>
      <trkpt lat="48.59161" lon="1.96599">
        <ele>102.04</ele>
        <time>2017-04-02T13:34:44Z</time>
      </trkpt>
      <trkpt lat="48.59161" lon="1.96599">
        <ele>103</ele>
        <time>2017-04-02T13:34:46Z</time>
      </trkpt>
      <trkpt lat="48.59167" lon="1.96614">
        <ele>103.96</ele>
        <time>2017-04-02T13:35:01Z</time>
      </trkpt>
      <trkpt lat="48.5917" lon="1.96614">
        <ele>103.48</ele>
        <time>2017-04-02T13:35:19Z</time>
      </trkpt>
      <trkpt lat="48.59172" lon="1.96615">
        <ele>103.48</ele>
        <time>2017-04-02T13:35:35Z</time>
      </trkpt>
      <trkpt lat="48.59173" lon="1.96614">
        <ele>98.19</ele>
        <time>2017-04-02T13:35:52Z</time>
      </trkpt>
      <trkpt lat="48.59173" lon="1.96614">
        <ele>104.44</ele>
        <time>2017-04-02T13:35:53Z</time>
      </trkpt>
      <trkpt lat="48.59173" lon="1.96614">
        <ele>103.96</ele>
        <time>2017-04-02T13:36:13Z</time>
      </trkpt>
      <trkpt lat="48.59173" lon="1.96614">
        <ele>103.96</ele>
        <time>2017-04-02T13:36:32Z</time>
      </trkpt>
      <trkpt lat="48.59173" lon="1.96613">
        <ele>103.96</ele>
        <time>2017-04-02T13:36:57Z</time>
      </trkpt>
      <trkpt lat="48.59173" lon="1.96612">
        <ele>110.21</ele>
        <time>2017-04-02T13:37:10Z</time>
      </trkpt>
      <trkpt lat="48.59173" lon="1.96612">
        <ele>104.92</ele>
        <time>2017-04-02T13:37:11Z</time>
      </trkpt>
      <trkpt lat="48.59173" lon="1.96612">
        <ele>103.48</ele>
        <time>2017-04-02T13:37:13Z</time>
      </trkpt>
      <trkpt lat="48.59173" lon="1.96612">
        <ele>103.96</ele>
        <time>2017-04-02T13:37:34Z</time>
      </trkpt>
      <trkpt lat="48.59172" lon="1.9661">
        <ele>103.96</ele>
        <time>2017-04-02T13:37:55Z</time>
      </trkpt>
    </trkseg>
  </trk>
</gpx>